<?xml version="1.0" encoding="UTF-8"?>
<gpx version="1.0" creator="Trackator" xmlns:xsi="http://www.w3.org/2001/XMLSchema-instance" xmlns="http://www.topografix.com/GPX/1/0" xmlns:topografix="http://www.topografix.com/GPX/Private/TopoGrafix/0/1" xsi:schemaLocation="http://www.topografix.com/GPX/1/0 http://www.topografix.com/GPX/1/0/gpx.xsd http://www.topografix.com/GPX/Private/TopoGrafix/0/1 http://www.topografix.com/GPX/Private/TopoGrafix/0/1/topografix.xsd">
<metadata>
<link href="http://www.trackalia.com"><text>Trackator</text>
</link>
</metadata>
<time>2014-06-07T08:58:05Z</time>
<trk>
<name>Track: jfgccv</name>
<desc>Carrera a pie</desc>
<trkseg>
<trkpt lat="37.569828" lon="-1.1765175">
<ele>83</ele>
<time>2014-06-07T08:54:08Z</time>
</trkpt>
<trkpt lat="37.5698" lon="-1.1764932">
<ele>80</ele>
<time>2014-06-07T08:54:09Z</time>
</trkpt>
<trkpt lat="37.56978" lon="-1.1764534">
<ele>77</ele>
<time>2014-06-07T08:54:11Z</time>
</trkpt>
<trkpt lat="37.56976" lon="-1.1764067">
<ele>77</ele>
<time>2014-06-07T08:54:13Z</time>
</trkpt>
<trkpt lat="37.56974" lon="-1.1763645">
<ele>80</ele>
<time>2014-06-07T08:54:15Z</time>
</trkpt>
<trkpt lat="37.569725" lon="-1.1763078">
<ele>76</ele>
<time>2014-06-07T08:54:17Z</time>
</trkpt>
<trkpt lat="37.56971" lon="-1.1762565">
<ele>76</ele>
<time>2014-06-07T08:54:19Z</time>
</trkpt>
<trkpt lat="37.569687" lon="-1.1761982">
<ele>76</ele>
<time>2014-06-07T08:54:21Z</time>
</trkpt>
<trkpt lat="37.56963" lon="-1.1761442">
<ele>77</ele>
<time>2014-06-07T08:54:23Z</time>
</trkpt>
<trkpt lat="37.569603" lon="-1.1760993">
<ele>76</ele>
<time>2014-06-07T08:54:25Z</time>
</trkpt>
<trkpt lat="37.56958" lon="-1.1760385">
<ele>75</ele>
<time>2014-06-07T08:54:27Z</time>
</trkpt>
<trkpt lat="37.569553" lon="-1.1760094">
<ele>77</ele>
<time>2014-06-07T08:54:29Z</time>
</trkpt>
<trkpt lat="37.56952" lon="-1.1759485">
<ele>76</ele>
<time>2014-06-07T08:54:31Z</time>
</trkpt>
<trkpt lat="37.569485" lon="-1.1759015">
<ele>75</ele>
<time>2014-06-07T08:54:33Z</time>
</trkpt>
<trkpt lat="37.569454" lon="-1.1758626">
<ele>75</ele>
<time>2014-06-07T08:54:35Z</time>
</trkpt>
<trkpt lat="37.569416" lon="-1.1758225">
<ele>75</ele>
<time>2014-06-07T08:54:37Z</time>
</trkpt>
<trkpt lat="37.56938" lon="-1.1757821">
<ele>75</ele>
<time>2014-06-07T08:54:39Z</time>
</trkpt>
<trkpt lat="37.56934" lon="-1.175749">
<ele>75</ele>
<time>2014-06-07T08:54:41Z</time>
</trkpt>
<trkpt lat="37.569294" lon="-1.1757162">
<ele>75</ele>
<time>2014-06-07T08:54:43Z</time>
</trkpt>
<trkpt lat="37.56925" lon="-1.1756887">
<ele>75</ele>
<time>2014-06-07T08:54:45Z</time>
</trkpt>
<trkpt lat="37.5692" lon="-1.1756686">
<ele>75</ele>
<time>2014-06-07T08:54:47Z</time>
</trkpt>
<trkpt lat="37.569157" lon="-1.1756544">
<ele>75</ele>
<time>2014-06-07T08:54:49Z</time>
</trkpt>
<trkpt lat="37.569115" lon="-1.1756402">
<ele>75</ele>
<time>2014-06-07T08:54:51Z</time>
</trkpt>
<trkpt lat="37.569057" lon="-1.1756309">
<ele>75</ele>
<time>2014-06-07T08:54:53Z</time>
</trkpt>
<trkpt lat="37.568996" lon="-1.1756225">
<ele>75</ele>
<time>2014-06-07T08:54:55Z</time>
</trkpt>
<trkpt lat="37.568954" lon="-1.1756186">
<ele>75</ele>
<time>2014-06-07T08:54:57Z</time>
</trkpt>
<trkpt lat="37.56891" lon="-1.1756145">
<ele>75</ele>
<time>2014-06-07T08:54:59Z</time>
</trkpt>
<trkpt lat="37.56886" lon="-1.175612">
<ele>75</ele>
<time>2014-06-07T08:55:01Z</time>
</trkpt>
<trkpt lat="37.568813" lon="-1.1756045">
<ele>75</ele>
<time>2014-06-07T08:55:03Z</time>
</trkpt>
<trkpt lat="37.568764" lon="-1.1755946">
<ele>75</ele>
<time>2014-06-07T08:55:05Z</time>
</trkpt>
<trkpt lat="37.568718" lon="-1.1755903">
<ele>75</ele>
<time>2014-06-07T08:55:07Z</time>
</trkpt>
<trkpt lat="37.568684" lon="-1.1755855">
<ele>75</ele>
<time>2014-06-07T08:55:09Z</time>
</trkpt>
<trkpt lat="37.568638" lon="-1.175583">
<ele>75</ele>
<time>2014-06-07T08:55:11Z</time>
</trkpt>
<trkpt lat="37.568592" lon="-1.1755714">
<ele>75</ele>
<time>2014-06-07T08:55:13Z</time>
</trkpt>
<trkpt lat="37.568542" lon="-1.1755648">
<ele>75</ele>
<time>2014-06-07T08:55:15Z</time>
</trkpt>
<trkpt lat="37.56849" lon="-1.175562">
<ele>74</ele>
<time>2014-06-07T08:55:17Z</time>
</trkpt>
<trkpt lat="37.568447" lon="-1.1755488">
<ele>74</ele>
<time>2014-06-07T08:55:19Z</time>
</trkpt>
<trkpt lat="37.568394" lon="-1.1755462">
<ele>74</ele>
<time>2014-06-07T08:55:21Z</time>
</trkpt>
<trkpt lat="37.568348" lon="-1.1755297">
<ele>74</ele>
<time>2014-06-07T08:55:23Z</time>
</trkpt>
<trkpt lat="37.568302" lon="-1.1755098">
<ele>74</ele>
<time>2014-06-07T08:55:25Z</time>
</trkpt>
<trkpt lat="37.56825" lon="-1.1754872">
<ele>74</ele>
<time>2014-06-07T08:55:27Z</time>
</trkpt>
<trkpt lat="37.568207" lon="-1.1754715">
<ele>74</ele>
<time>2014-06-07T08:55:29Z</time>
</trkpt>
<trkpt lat="37.56816" lon="-1.1754614">
<ele>74</ele>
<time>2014-06-07T08:55:31Z</time>
</trkpt>
<trkpt lat="37.56813" lon="-1.175488">
<ele>74</ele>
<time>2014-06-07T08:55:33Z</time>
</trkpt>
<trkpt lat="37.56808" lon="-1.1755731">
<ele>74</ele>
<time>2014-06-07T08:55:36Z</time>
</trkpt>
<trkpt lat="37.568054" lon="-1.1756365">
<ele>74</ele>
<time>2014-06-07T08:55:38Z</time>
</trkpt>
<trkpt lat="37.568035" lon="-1.1756904">
<ele>74</ele>
<time>2014-06-07T08:55:40Z</time>
</trkpt>
<trkpt lat="37.56801" lon="-1.1757721">
<ele>75</ele>
<time>2014-06-07T08:55:42Z</time>
</trkpt>
<trkpt lat="37.568005" lon="-1.1758314">
<ele>75</ele>
<time>2014-06-07T08:55:44Z</time>
</trkpt>
<trkpt lat="37.568" lon="-1.1759038">
<ele>75</ele>
<time>2014-06-07T08:55:46Z</time>
</trkpt>
<trkpt lat="37.567997" lon="-1.1759727">
<ele>75</ele>
<time>2014-06-07T08:55:48Z</time>
</trkpt>
<trkpt lat="37.567986" lon="-1.1760305">
<ele>75</ele>
<time>2014-06-07T08:55:50Z</time>
</trkpt>
<trkpt lat="37.567978" lon="-1.176104">
<ele>75</ele>
<time>2014-06-07T08:55:52Z</time>
</trkpt>
<trkpt lat="37.567966" lon="-1.17616">
<ele>74</ele>
<time>2014-06-07T08:55:54Z</time>
</trkpt>
<trkpt lat="37.56796" lon="-1.1762197">
<ele>74</ele>
<time>2014-06-07T08:55:56Z</time>
</trkpt>
<trkpt lat="37.56796" lon="-1.176284">
<ele>74</ele>
<time>2014-06-07T08:55:58Z</time>
</trkpt>
<trkpt lat="37.567955" lon="-1.1763465">
<ele>74</ele>
<time>2014-06-07T08:56:00Z</time>
</trkpt>
<trkpt lat="37.567944" lon="-1.1764196">
<ele>74</ele>
<time>2014-06-07T08:56:02Z</time>
</trkpt>
<trkpt lat="37.567936" lon="-1.1764786">
<ele>74</ele>
<time>2014-06-07T08:56:04Z</time>
</trkpt>
<trkpt lat="37.56793" lon="-1.1765435">
<ele>74</ele>
<time>2014-06-07T08:56:06Z</time>
</trkpt>
<trkpt lat="37.56792" lon="-1.1765981">
<ele>73</ele>
<time>2014-06-07T08:56:08Z</time>
</trkpt>
<trkpt lat="37.56792" lon="-1.1766641">
<ele>73</ele>
<time>2014-06-07T08:56:10Z</time>
</trkpt>
<trkpt lat="37.567913" lon="-1.1767266">
<ele>73</ele>
<time>2014-06-07T08:56:12Z</time>
</trkpt>
<trkpt lat="37.567905" lon="-1.1767938">
<ele>73</ele>
<time>2014-06-07T08:56:14Z</time>
</trkpt>
<trkpt lat="37.567898" lon="-1.1768587">
<ele>73</ele>
<time>2014-06-07T08:56:16Z</time>
</trkpt>
<trkpt lat="37.567886" lon="-1.1769098">
<ele>73</ele>
<time>2014-06-07T08:56:18Z</time>
</trkpt>
<trkpt lat="37.56787" lon="-1.1769749">
<ele>73</ele>
<time>2014-06-07T08:56:20Z</time>
</trkpt>
<trkpt lat="37.56786" lon="-1.1770352">
<ele>73</ele>
<time>2014-06-07T08:56:22Z</time>
</trkpt>
<trkpt lat="37.56785" lon="-1.1771125">
<ele>72</ele>
<time>2014-06-07T08:56:24Z</time>
</trkpt>
<trkpt lat="37.567837" lon="-1.1771872">
<ele>72</ele>
<time>2014-06-07T08:56:26Z</time>
</trkpt>
<trkpt lat="37.567825" lon="-1.1772573">
<ele>72</ele>
<time>2014-06-07T08:56:28Z</time>
</trkpt>
<trkpt lat="37.56781" lon="-1.177317">
<ele>72</ele>
<time>2014-06-07T08:56:30Z</time>
</trkpt>
<trkpt lat="37.567806" lon="-1.1773864">
<ele>72</ele>
<time>2014-06-07T08:56:32Z</time>
</trkpt>
<trkpt lat="37.5678" lon="-1.1774466">
<ele>72</ele>
<time>2014-06-07T08:56:34Z</time>
</trkpt>
<trkpt lat="37.56779" lon="-1.1775079">
<ele>72</ele>
<time>2014-06-07T08:56:36Z</time>
</trkpt>
<trkpt lat="37.567783" lon="-1.1775656">
<ele>72</ele>
<time>2014-06-07T08:56:38Z</time>
</trkpt>
<trkpt lat="37.567776" lon="-1.1776243">
<ele>72</ele>
<time>2014-06-07T08:56:40Z</time>
</trkpt>
<trkpt lat="37.567764" lon="-1.1776768">
<ele>72</ele>
<time>2014-06-07T08:56:42Z</time>
</trkpt>
<trkpt lat="37.567753" lon="-1.1777331">
<ele>72</ele>
<time>2014-06-07T08:56:44Z</time>
</trkpt>
<trkpt lat="37.567738" lon="-1.1778048">
<ele>72</ele>
<time>2014-06-07T08:56:46Z</time>
</trkpt>
<trkpt lat="37.56773" lon="-1.1778634">
<ele>72</ele>
<time>2014-06-07T08:56:48Z</time>
</trkpt>
<trkpt lat="37.567722" lon="-1.1779288">
<ele>72</ele>
<time>2014-06-07T08:56:50Z</time>
</trkpt>
<trkpt lat="37.56772" lon="-1.177981">
<ele>71</ele>
<time>2014-06-07T08:56:52Z</time>
</trkpt>
<trkpt lat="37.567715" lon="-1.1780452">
<ele>71</ele>
<time>2014-06-07T08:56:54Z</time>
</trkpt>
<trkpt lat="37.56771" lon="-1.1781198">
<ele>71</ele>
<time>2014-06-07T08:56:56Z</time>
</trkpt>
<trkpt lat="37.567703" lon="-1.1781833">
<ele>71</ele>
<time>2014-06-07T08:56:58Z</time>
</trkpt>
<trkpt lat="37.567696" lon="-1.1782598">
<ele>70</ele>
<time>2014-06-07T08:57:00Z</time>
</trkpt>
<trkpt lat="37.56769" lon="-1.1783274">
<ele>70</ele>
<time>2014-06-07T08:57:02Z</time>
</trkpt>
<trkpt lat="37.567684" lon="-1.1784016">
<ele>70</ele>
<time>2014-06-07T08:57:04Z</time>
</trkpt>
<trkpt lat="37.567673" lon="-1.1784568">
<ele>70</ele>
<time>2014-06-07T08:57:06Z</time>
</trkpt>
<trkpt lat="37.56766" lon="-1.1785359">
<ele>69</ele>
<time>2014-06-07T08:57:08Z</time>
</trkpt>
<trkpt lat="37.567654" lon="-1.1785977">
<ele>69</ele>
<time>2014-06-07T08:57:10Z</time>
</trkpt>
<trkpt lat="37.567646" lon="-1.1786594">
<ele>69</ele>
<time>2014-06-07T08:57:12Z</time>
</trkpt>
<trkpt lat="37.56764" lon="-1.1787341">
<ele>69</ele>
<time>2014-06-07T08:57:14Z</time>
</trkpt>
<trkpt lat="37.56764" lon="-1.178793">
<ele>69</ele>
<time>2014-06-07T08:57:16Z</time>
</trkpt>
<trkpt lat="37.567635" lon="-1.1788558">
<ele>68</ele>
<time>2014-06-07T08:57:18Z</time>
</trkpt>
<trkpt lat="37.567623" lon="-1.1789149">
<ele>68</ele>
<time>2014-06-07T08:57:20Z</time>
</trkpt>
<trkpt lat="37.567608" lon="-1.1789789">
<ele>68</ele>
<time>2014-06-07T08:57:22Z</time>
</trkpt>
<trkpt lat="37.5676" lon="-1.179039">
<ele>68</ele>
<time>2014-06-07T08:57:24Z</time>
</trkpt>
<trkpt lat="37.567585" lon="-1.1791058">
<ele>67</ele>
<time>2014-06-07T08:57:26Z</time>
</trkpt>
<trkpt lat="37.567566" lon="-1.179172">
<ele>67</ele>
<time>2014-06-07T08:57:28Z</time>
</trkpt>
<trkpt lat="37.567543" lon="-1.1792468">
<ele>67</ele>
<time>2014-06-07T08:57:30Z</time>
</trkpt>
<trkpt lat="37.567528" lon="-1.179326">
<ele>67</ele>
<time>2014-06-07T08:57:32Z</time>
</trkpt>
<trkpt lat="37.56752" lon="-1.1793872">
<ele>66</ele>
<time>2014-06-07T08:57:34Z</time>
</trkpt>
<trkpt lat="37.56751" lon="-1.179435">
<ele>66</ele>
<time>2014-06-07T08:57:36Z</time>
</trkpt>
<trkpt lat="37.56749" lon="-1.1794801">
<ele>66</ele>
<time>2014-06-07T08:57:38Z</time>
</trkpt>
<trkpt lat="37.567474" lon="-1.1795123">
<ele>66</ele>
<time>2014-06-07T08:57:40Z</time>
</trkpt>
<trkpt lat="37.567448" lon="-1.1795585">
<ele>65</ele>
<time>2014-06-07T08:57:42Z</time>
</trkpt>
<trkpt lat="37.567417" lon="-1.17961">
<ele>65</ele>
<time>2014-06-07T08:57:44Z</time>
</trkpt>
<trkpt lat="37.567383" lon="-1.1796519">
<ele>64</ele>
<time>2014-06-07T08:57:46Z</time>
</trkpt>
<trkpt lat="37.567345" lon="-1.1797026">
<ele>64</ele>
<time>2014-06-07T08:57:48Z</time>
</trkpt>
<trkpt lat="37.567307" lon="-1.1797465">
<ele>63</ele>
<time>2014-06-07T08:57:50Z</time>
</trkpt>
<trkpt lat="37.567265" lon="-1.1798111">
<ele>63</ele>
<time>2014-06-07T08:57:52Z</time>
</trkpt>
<trkpt lat="37.567234" lon="-1.1798627">
<ele>63</ele>
<time>2014-06-07T08:57:54Z</time>
</trkpt>
<trkpt lat="37.567204" lon="-1.1799164">
<ele>63</ele>
<time>2014-06-07T08:57:56Z</time>
</trkpt>
<trkpt lat="37.56718" lon="-1.1799564">
<ele>63</ele>
<time>2014-06-07T08:57:58Z</time>
</trkpt>
<trkpt lat="37.567158" lon="-1.1799606">
<ele>63</ele>
<time>2014-06-07T08:58:00Z</time>
</trkpt>
<trkpt lat="37.567142" lon="-1.1799306">
<ele>62</ele>
<time>2014-06-07T08:58:02Z</time>
</trkpt>
<trkpt lat="37.56712" lon="-1.1798909">
<ele>62</ele>
<time>2014-06-07T08:58:04Z</time>
</trkpt>
<trkpt lat="37.56705" lon="-1.1798775">
<ele>61</ele>
<time>2014-06-07T08:58:06Z</time>
</trkpt>
<trkpt lat="37.566998" lon="-1.1799065">
<ele>61</ele>
<time>2014-06-07T08:58:08Z</time>
</trkpt>
<trkpt lat="37.566933" lon="-1.1799486">
<ele>61</ele>
<time>2014-06-07T08:58:10Z</time>
</trkpt>
<trkpt lat="37.566875" lon="-1.1799849">
<ele>61</ele>
<time>2014-06-07T08:58:12Z</time>
</trkpt>
<trkpt lat="37.56683" lon="-1.1800005">
<ele>61</ele>
<time>2014-06-07T08:58:14Z</time>
</trkpt>
<trkpt lat="37.56679" lon="-1.1800141">
<ele>60</ele>
<time>2014-06-07T08:58:16Z</time>
</trkpt>
<trkpt lat="37.56675" lon="-1.1800393">
<ele>60</ele>
<time>2014-06-07T08:58:18Z</time>
</trkpt>
<trkpt lat="37.5667" lon="-1.1800597">
<ele>60</ele>
<time>2014-06-07T08:58:20Z</time>
</trkpt>
<trkpt lat="37.566654" lon="-1.1800839">
<ele>60</ele>
<time>2014-06-07T08:58:22Z</time>
</trkpt>
<trkpt lat="37.56663" lon="-1.1801208">
<ele>60</ele>
<time>2014-06-07T08:58:24Z</time>
</trkpt>
<trkpt lat="37.56665" lon="-1.1801658">
<ele>60</ele>
<time>2014-06-07T08:58:26Z</time>
</trkpt>
<trkpt lat="37.566677" lon="-1.1802274">
<ele>59</ele>
<time>2014-06-07T08:58:28Z</time>
</trkpt>
<trkpt lat="37.56671" lon="-1.180283">
<ele>59</ele>
<time>2014-06-07T08:58:30Z</time>
</trkpt>
<trkpt lat="37.566742" lon="-1.1803291">
<ele>59</ele>
<time>2014-06-07T08:58:32Z</time>
</trkpt>
<trkpt lat="37.56678" lon="-1.1803774">
<ele>59</ele>
<time>2014-06-07T08:58:34Z</time>
</trkpt>
<trkpt lat="37.56681" lon="-1.1804329">
<ele>59</ele>
<time>2014-06-07T08:58:36Z</time>
</trkpt>
<trkpt lat="37.566822" lon="-1.1805012">
<ele>59</ele>
<time>2014-06-07T08:58:38Z</time>
</trkpt>
<trkpt lat="37.566826" lon="-1.1805671">
<ele>59</ele>
<time>2014-06-07T08:58:40Z</time>
</trkpt>
<trkpt lat="37.566822" lon="-1.1806337">
<ele>58</ele>
<time>2014-06-07T08:58:42Z</time>
</trkpt>
<trkpt lat="37.566822" lon="-1.1807011">
<ele>58</ele>
<time>2014-06-07T08:58:44Z</time>
</trkpt>
<trkpt lat="37.566822" lon="-1.1807634">
<ele>58</ele>
<time>2014-06-07T08:58:46Z</time>
</trkpt>
<trkpt lat="37.566826" lon="-1.1808218">
<ele>58</ele>
<time>2014-06-07T08:58:48Z</time>
</trkpt>
<trkpt lat="37.566826" lon="-1.1808839">
<ele>58</ele>
<time>2014-06-07T08:58:50Z</time>
</trkpt>
<trkpt lat="37.566826" lon="-1.180955">
<ele>58</ele>
<time>2014-06-07T08:58:52Z</time>
</trkpt>
<trkpt lat="37.56683" lon="-1.1810191">
<ele>58</ele>
<time>2014-06-07T08:58:54Z</time>
</trkpt>
<trkpt lat="37.56683" lon="-1.1810884">
<ele>57</ele>
<time>2014-06-07T08:58:56Z</time>
</trkpt>
<trkpt lat="37.566837" lon="-1.1811817">
<ele>57</ele>
<time>2014-06-07T08:58:59Z</time>
</trkpt>
<trkpt lat="37.566845" lon="-1.1812456">
<ele>57</ele>
<time>2014-06-07T08:59:01Z</time>
</trkpt>
<trkpt lat="37.566853" lon="-1.1813053">
<ele>57</ele>
<time>2014-06-07T08:59:03Z</time>
</trkpt>
<trkpt lat="37.56686" lon="-1.181377">
<ele>57</ele>
<time>2014-06-07T08:59:05Z</time>
</trkpt>
<trkpt lat="37.56687" lon="-1.1814506">
<ele>57</ele>
<time>2014-06-07T08:59:07Z</time>
</trkpt>
<trkpt lat="37.56688" lon="-1.1815069">
<ele>57</ele>
<time>2014-06-07T08:59:09Z</time>
</trkpt>
<trkpt lat="37.566895" lon="-1.1815531">
<ele>57</ele>
<time>2014-06-07T08:59:11Z</time>
</trkpt>
<trkpt lat="37.566906" lon="-1.1815959">
<ele>57</ele>
<time>2014-06-07T08:59:13Z</time>
</trkpt>
<trkpt lat="37.566917" lon="-1.1816548">
<ele>56</ele>
<time>2014-06-07T08:59:15Z</time>
</trkpt>
<trkpt lat="37.566933" lon="-1.1817185">
<ele>56</ele>
<time>2014-06-07T08:59:17Z</time>
</trkpt>
<trkpt lat="37.56695" lon="-1.181785">
<ele>56</ele>
<time>2014-06-07T08:59:19Z</time>
</trkpt>
<trkpt lat="37.566967" lon="-1.1818634">
<ele>56</ele>
<time>2014-06-07T08:59:21Z</time>
</trkpt>
<trkpt lat="37.56698" lon="-1.1819295">
<ele>56</ele>
<time>2014-06-07T08:59:23Z</time>
</trkpt>
<trkpt lat="37.566982" lon="-1.1820039">
<ele>56</ele>
<time>2014-06-07T08:59:25Z</time>
</trkpt>
<trkpt lat="37.566998" lon="-1.1820654">
<ele>56</ele>
<time>2014-06-07T08:59:27Z</time>
</trkpt>
<trkpt lat="37.567013" lon="-1.18212">
<ele>56</ele>
<time>2014-06-07T08:59:29Z</time>
</trkpt>
<trkpt lat="37.56703" lon="-1.1821841">
<ele>56</ele>
<time>2014-06-07T08:59:31Z</time>
</trkpt>
<trkpt lat="37.567047" lon="-1.1822441">
<ele>56</ele>
<time>2014-06-07T08:59:33Z</time>
</trkpt>
<trkpt lat="37.567062" lon="-1.1822989">
<ele>56</ele>
<time>2014-06-07T08:59:35Z</time>
</trkpt>
<trkpt lat="37.56708" lon="-1.1823667">
<ele>56</ele>
<time>2014-06-07T08:59:37Z</time>
</trkpt>
<trkpt lat="37.567097" lon="-1.1824243">
<ele>56</ele>
<time>2014-06-07T08:59:39Z</time>
</trkpt>
<trkpt lat="37.56712" lon="-1.1824924">
<ele>56</ele>
<time>2014-06-07T08:59:41Z</time>
</trkpt>
<trkpt lat="37.567135" lon="-1.1825557">
<ele>56</ele>
<time>2014-06-07T08:59:43Z</time>
</trkpt>
<trkpt lat="37.56715" lon="-1.1826196">
<ele>56</ele>
<time>2014-06-07T08:59:45Z</time>
</trkpt>
<trkpt lat="37.567158" lon="-1.1826748">
<ele>56</ele>
<time>2014-06-07T08:59:47Z</time>
</trkpt>
<trkpt lat="37.567173" lon="-1.1827388">
<ele>56</ele>
<time>2014-06-07T08:59:49Z</time>
</trkpt>
<trkpt lat="37.56719" lon="-1.182812">
<ele>56</ele>
<time>2014-06-07T08:59:51Z</time>
</trkpt>
<trkpt lat="37.567204" lon="-1.1828761">
<ele>56</ele>
<time>2014-06-07T08:59:53Z</time>
</trkpt>
<trkpt lat="37.567215" lon="-1.1829339">
<ele>56</ele>
<time>2014-06-07T08:59:55Z</time>
</trkpt>
<trkpt lat="37.567226" lon="-1.182988">
<ele>56</ele>
<time>2014-06-07T08:59:57Z</time>
</trkpt>
<trkpt lat="37.56724" lon="-1.1830415">
<ele>56</ele>
<time>2014-06-07T08:59:59Z</time>
</trkpt>
<trkpt lat="37.567265" lon="-1.1831057">
<ele>56</ele>
<time>2014-06-07T09:00:01Z</time>
</trkpt>
<trkpt lat="37.56728" lon="-1.1831608">
<ele>56</ele>
<time>2014-06-07T09:00:03Z</time>
</trkpt>
<trkpt lat="37.5673" lon="-1.1832241">
<ele>56</ele>
<time>2014-06-07T09:00:05Z</time>
</trkpt>
<trkpt lat="37.567314" lon="-1.183291">
<ele>56</ele>
<time>2014-06-07T09:00:07Z</time>
</trkpt>
<trkpt lat="37.567326" lon="-1.183356">
<ele>56</ele>
<time>2014-06-07T09:00:09Z</time>
</trkpt>
<trkpt lat="37.567337" lon="-1.183423">
<ele>56</ele>
<time>2014-06-07T09:00:11Z</time>
</trkpt>
<trkpt lat="37.567356" lon="-1.1834877">
<ele>56</ele>
<time>2014-06-07T09:00:13Z</time>
</trkpt>
<trkpt lat="37.56737" lon="-1.1835444">
<ele>56</ele>
<time>2014-06-07T09:00:15Z</time>
</trkpt>
<trkpt lat="37.56738" lon="-1.1835986">
<ele>56</ele>
<time>2014-06-07T09:00:17Z</time>
</trkpt>
<trkpt lat="37.567394" lon="-1.1836493">
<ele>56</ele>
<time>2014-06-07T09:00:19Z</time>
</trkpt>
<trkpt lat="37.567413" lon="-1.1837076">
<ele>56</ele>
<time>2014-06-07T09:00:21Z</time>
</trkpt>
<trkpt lat="37.56743" lon="-1.1837678">
<ele>56</ele>
<time>2014-06-07T09:00:23Z</time>
</trkpt>
<trkpt lat="37.567448" lon="-1.1838329">
<ele>56</ele>
<time>2014-06-07T09:00:25Z</time>
</trkpt>
<trkpt lat="37.567463" lon="-1.1839066">
<ele>56</ele>
<time>2014-06-07T09:00:27Z</time>
</trkpt>
<trkpt lat="37.56748" lon="-1.1839722">
<ele>56</ele>
<time>2014-06-07T09:00:29Z</time>
</trkpt>
<trkpt lat="37.567497" lon="-1.184035">
<ele>56</ele>
<time>2014-06-07T09:00:31Z</time>
</trkpt>
<trkpt lat="37.567513" lon="-1.1840968">
<ele>56</ele>
<time>2014-06-07T09:00:33Z</time>
</trkpt>
<trkpt lat="37.567528" lon="-1.1841534">
<ele>56</ele>
<time>2014-06-07T09:00:35Z</time>
</trkpt>
<trkpt lat="37.567547" lon="-1.184212">
<ele>56</ele>
<time>2014-06-07T09:00:37Z</time>
</trkpt>
<trkpt lat="37.56757" lon="-1.18427">
<ele>56</ele>
<time>2014-06-07T09:00:39Z</time>
</trkpt>
<trkpt lat="37.56758" lon="-1.1843175">
<ele>56</ele>
<time>2014-06-07T09:00:41Z</time>
</trkpt>
<trkpt lat="37.567608" lon="-1.1843718">
<ele>56</ele>
<time>2014-06-07T09:00:43Z</time>
</trkpt>
<trkpt lat="37.56764" lon="-1.1844295">
<ele>56</ele>
<time>2014-06-07T09:00:45Z</time>
</trkpt>
<trkpt lat="37.567665" lon="-1.1844819">
<ele>56</ele>
<time>2014-06-07T09:00:47Z</time>
</trkpt>
<trkpt lat="37.56768" lon="-1.1845331">
<ele>56</ele>
<time>2014-06-07T09:00:49Z</time>
</trkpt>
<trkpt lat="37.567707" lon="-1.1845884">
<ele>56</ele>
<time>2014-06-07T09:00:51Z</time>
</trkpt>
<trkpt lat="37.567734" lon="-1.184645">
<ele>56</ele>
<time>2014-06-07T09:00:53Z</time>
</trkpt>
<trkpt lat="37.567757" lon="-1.1847014">
<ele>56</ele>
<time>2014-06-07T09:00:55Z</time>
</trkpt>
<trkpt lat="37.567783" lon="-1.1847552">
<ele>56</ele>
<time>2014-06-07T09:00:57Z</time>
</trkpt>
<trkpt lat="37.567814" lon="-1.1848068">
<ele>56</ele>
<time>2014-06-07T09:00:59Z</time>
</trkpt>
<trkpt lat="37.56785" lon="-1.1848629">
<ele>57</ele>
<time>2014-06-07T09:01:01Z</time>
</trkpt>
<trkpt lat="37.56787" lon="-1.1849157">
<ele>57</ele>
<time>2014-06-07T09:01:03Z</time>
</trkpt>
<trkpt lat="37.567894" lon="-1.1849763">
<ele>57</ele>
<time>2014-06-07T09:01:05Z</time>
</trkpt>
<trkpt lat="37.567913" lon="-1.185032">
<ele>57</ele>
<time>2014-06-07T09:01:07Z</time>
</trkpt>
<trkpt lat="37.567932" lon="-1.1850933">
<ele>57</ele>
<time>2014-06-07T09:01:09Z</time>
</trkpt>
<trkpt lat="37.567955" lon="-1.1851556">
<ele>57</ele>
<time>2014-06-07T09:01:11Z</time>
</trkpt>
<trkpt lat="37.567978" lon="-1.1852238">
<ele>57</ele>
<time>2014-06-07T09:01:13Z</time>
</trkpt>
<trkpt lat="37.568005" lon="-1.1852908">
<ele>57</ele>
<time>2014-06-07T09:01:15Z</time>
</trkpt>
<trkpt lat="37.56802" lon="-1.185363">
<ele>57</ele>
<time>2014-06-07T09:01:17Z</time>
</trkpt>
<trkpt lat="37.568043" lon="-1.1854212">
<ele>57</ele>
<time>2014-06-07T09:01:19Z</time>
</trkpt>
<trkpt lat="37.56807" lon="-1.185483">
<ele>57</ele>
<time>2014-06-07T09:01:21Z</time>
</trkpt>
<trkpt lat="37.568092" lon="-1.1855339">
<ele>57</ele>
<time>2014-06-07T09:01:23Z</time>
</trkpt>
<trkpt lat="37.568115" lon="-1.1855835">
<ele>57</ele>
<time>2014-06-07T09:01:25Z</time>
</trkpt>
<trkpt lat="37.568134" lon="-1.1856394">
<ele>57</ele>
<time>2014-06-07T09:01:27Z</time>
</trkpt>
<trkpt lat="37.568146" lon="-1.1856998">
<ele>57</ele>
<time>2014-06-07T09:01:29Z</time>
</trkpt>
<trkpt lat="37.56816" lon="-1.1857573">
<ele>57</ele>
<time>2014-06-07T09:01:31Z</time>
</trkpt>
<trkpt lat="37.56817" lon="-1.1858099">
<ele>57</ele>
<time>2014-06-07T09:01:33Z</time>
</trkpt>
<trkpt lat="37.568184" lon="-1.1858776">
<ele>57</ele>
<time>2014-06-07T09:01:35Z</time>
</trkpt>
<trkpt lat="37.56821" lon="-1.1859412">
<ele>58</ele>
<time>2014-06-07T09:01:37Z</time>
</trkpt>
<trkpt lat="37.568233" lon="-1.1860031">
<ele>58</ele>
<time>2014-06-07T09:01:39Z</time>
</trkpt>
<trkpt lat="37.56825" lon="-1.1860838">
<ele>58</ele>
<time>2014-06-07T09:01:41Z</time>
</trkpt>
<trkpt lat="37.568268" lon="-1.1861428">
<ele>58</ele>
<time>2014-06-07T09:01:43Z</time>
</trkpt>
<trkpt lat="37.568283" lon="-1.1861857">
<ele>58</ele>
<time>2014-06-07T09:01:45Z</time>
</trkpt>
<trkpt lat="37.568302" lon="-1.1862359">
<ele>58</ele>
<time>2014-06-07T09:01:47Z</time>
</trkpt>
<trkpt lat="37.568325" lon="-1.1862942">
<ele>58</ele>
<time>2014-06-07T09:01:49Z</time>
</trkpt>
<trkpt lat="37.568344" lon="-1.1863539">
<ele>58</ele>
<time>2014-06-07T09:01:51Z</time>
</trkpt>
<trkpt lat="37.568363" lon="-1.1864119">
<ele>57</ele>
<time>2014-06-07T09:01:53Z</time>
</trkpt>
<trkpt lat="37.56838" lon="-1.1864722">
<ele>57</ele>
<time>2014-06-07T09:01:55Z</time>
</trkpt>
<trkpt lat="37.5684" lon="-1.1865436">
<ele>57</ele>
<time>2014-06-07T09:01:57Z</time>
</trkpt>
<trkpt lat="37.56842" lon="-1.1866097">
<ele>57</ele>
<time>2014-06-07T09:01:59Z</time>
</trkpt>
<trkpt lat="37.56844" lon="-1.1866642">
<ele>57</ele>
<time>2014-06-07T09:02:01Z</time>
</trkpt>
<trkpt lat="37.56846" lon="-1.1867348">
<ele>57</ele>
<time>2014-06-07T09:02:03Z</time>
</trkpt>
<trkpt lat="37.56848" lon="-1.1867979">
<ele>57</ele>
<time>2014-06-07T09:02:05Z</time>
</trkpt>
<trkpt lat="37.568493" lon="-1.1868579">
<ele>57</ele>
<time>2014-06-07T09:02:07Z</time>
</trkpt>
<trkpt lat="37.56851" lon="-1.1869322">
<ele>57</ele>
<time>2014-06-07T09:02:09Z</time>
</trkpt>
<trkpt lat="37.568516" lon="-1.1869969">
<ele>57</ele>
<time>2014-06-07T09:02:11Z</time>
</trkpt>
<trkpt lat="37.56852" lon="-1.1870762">
<ele>57</ele>
<time>2014-06-07T09:02:13Z</time>
</trkpt>
<trkpt lat="37.568523" lon="-1.1871395">
<ele>57</ele>
<time>2014-06-07T09:02:15Z</time>
</trkpt>
<trkpt lat="37.568523" lon="-1.187205">
<ele>57</ele>
<time>2014-06-07T09:02:17Z</time>
</trkpt>
<trkpt lat="37.568523" lon="-1.1872778">
<ele>57</ele>
<time>2014-06-07T09:02:19Z</time>
</trkpt>
<trkpt lat="37.568523" lon="-1.1873442">
<ele>57</ele>
<time>2014-06-07T09:02:21Z</time>
</trkpt>
<trkpt lat="37.56853" lon="-1.1874161">
<ele>57</ele>
<time>2014-06-07T09:02:23Z</time>
</trkpt>
<trkpt lat="37.56853" lon="-1.187486">
<ele>57</ele>
<time>2014-06-07T09:02:25Z</time>
</trkpt>
<trkpt lat="37.56853" lon="-1.1875583">
<ele>57</ele>
<time>2014-06-07T09:02:27Z</time>
</trkpt>
<trkpt lat="37.568527" lon="-1.1876237">
<ele>57</ele>
<time>2014-06-07T09:02:29Z</time>
</trkpt>
<trkpt lat="37.568516" lon="-1.1876893">
<ele>57</ele>
<time>2014-06-07T09:02:31Z</time>
</trkpt>
<trkpt lat="37.568512" lon="-1.1877595">
<ele>57</ele>
<time>2014-06-07T09:02:33Z</time>
</trkpt>
<trkpt lat="37.56851" lon="-1.1878264">
<ele>57</ele>
<time>2014-06-07T09:02:35Z</time>
</trkpt>
<trkpt lat="37.56851" lon="-1.1878941">
<ele>57</ele>
<time>2014-06-07T09:02:37Z</time>
</trkpt>
<trkpt lat="37.568504" lon="-1.1879653">
<ele>57</ele>
<time>2014-06-07T09:02:39Z</time>
</trkpt>
<trkpt lat="37.568504" lon="-1.1880301">
<ele>57</ele>
<time>2014-06-07T09:02:41Z</time>
</trkpt>
<trkpt lat="37.5685" lon="-1.1881057">
<ele>57</ele>
<time>2014-06-07T09:02:43Z</time>
</trkpt>
<trkpt lat="37.56849" lon="-1.1881719">
<ele>57</ele>
<time>2014-06-07T09:02:45Z</time>
</trkpt>
<trkpt lat="37.568493" lon="-1.188238">
<ele>57</ele>
<time>2014-06-07T09:02:47Z</time>
</trkpt>
<trkpt lat="37.56849" lon="-1.1883017">
<ele>57</ele>
<time>2014-06-07T09:02:49Z</time>
</trkpt>
<trkpt lat="37.56849" lon="-1.1883535">
<ele>56</ele>
<time>2014-06-07T09:02:51Z</time>
</trkpt>
<trkpt lat="37.568493" lon="-1.1884258">
<ele>56</ele>
<time>2014-06-07T09:02:53Z</time>
</trkpt>
<trkpt lat="37.56849" lon="-1.1885059">
<ele>56</ele>
<time>2014-06-07T09:02:55Z</time>
</trkpt>
<trkpt lat="37.56848" lon="-1.1885637">
<ele>56</ele>
<time>2014-06-07T09:02:57Z</time>
</trkpt>
<trkpt lat="37.56848" lon="-1.1886324">
<ele>56</ele>
<time>2014-06-07T09:02:59Z</time>
</trkpt>
<trkpt lat="37.568478" lon="-1.1887009">
<ele>56</ele>
<time>2014-06-07T09:03:01Z</time>
</trkpt>
<trkpt lat="37.568474" lon="-1.1887634">
<ele>56</ele>
<time>2014-06-07T09:03:03Z</time>
</trkpt>
<trkpt lat="37.568474" lon="-1.1888309">
<ele>56</ele>
<time>2014-06-07T09:03:05Z</time>
</trkpt>
<trkpt lat="37.568478" lon="-1.1889061">
<ele>56</ele>
<time>2014-06-07T09:03:07Z</time>
</trkpt>
<trkpt lat="37.56849" lon="-1.1889626">
<ele>56</ele>
<time>2014-06-07T09:03:09Z</time>
</trkpt>
<trkpt lat="37.5685" lon="-1.1890299">
<ele>56</ele>
<time>2014-06-07T09:03:11Z</time>
</trkpt>
<trkpt lat="37.56852" lon="-1.1890948">
<ele>56</ele>
<time>2014-06-07T09:03:13Z</time>
</trkpt>
<trkpt lat="37.56855" lon="-1.1891629">
<ele>56</ele>
<time>2014-06-07T09:03:15Z</time>
</trkpt>
<trkpt lat="37.56858" lon="-1.189219">
<ele>56</ele>
<time>2014-06-07T09:03:17Z</time>
</trkpt>
<trkpt lat="37.568604" lon="-1.1892738">
<ele>56</ele>
<time>2014-06-07T09:03:19Z</time>
</trkpt>
<trkpt lat="37.568634" lon="-1.1893282">
<ele>56</ele>
<time>2014-06-07T09:03:21Z</time>
</trkpt>
<trkpt lat="37.568665" lon="-1.1893911">
<ele>56</ele>
<time>2014-06-07T09:03:23Z</time>
</trkpt>
<trkpt lat="37.568703" lon="-1.189455">
<ele>56</ele>
<time>2014-06-07T09:03:25Z</time>
</trkpt>
<trkpt lat="37.568745" lon="-1.1895082">
<ele>56</ele>
<time>2014-06-07T09:03:27Z</time>
</trkpt>
<trkpt lat="37.56877" lon="-1.1895595">
<ele>56</ele>
<time>2014-06-07T09:03:29Z</time>
</trkpt>
<trkpt lat="37.56881" lon="-1.1896206">
<ele>56</ele>
<time>2014-06-07T09:03:31Z</time>
</trkpt>
<trkpt lat="37.568848" lon="-1.1896666">
<ele>56</ele>
<time>2014-06-07T09:03:33Z</time>
</trkpt>
<trkpt lat="37.568893" lon="-1.18971">
<ele>56</ele>
<time>2014-06-07T09:03:35Z</time>
</trkpt>
<trkpt lat="37.568928" lon="-1.1897522">
<ele>56</ele>
<time>2014-06-07T09:03:37Z</time>
</trkpt>
<trkpt lat="37.568962" lon="-1.1898005">
<ele>56</ele>
<time>2014-06-07T09:03:39Z</time>
</trkpt>
<trkpt lat="37.568996" lon="-1.1898437">
<ele>56</ele>
<time>2014-06-07T09:03:41Z</time>
</trkpt>
<trkpt lat="37.569023" lon="-1.18989">
<ele>56</ele>
<time>2014-06-07T09:03:43Z</time>
</trkpt>
<trkpt lat="37.56906" lon="-1.1899351">
<ele>56</ele>
<time>2014-06-07T09:03:45Z</time>
</trkpt>
<trkpt lat="37.569103" lon="-1.1899788">
<ele>56</ele>
<time>2014-06-07T09:03:47Z</time>
</trkpt>
<trkpt lat="37.569138" lon="-1.1900269">
<ele>56</ele>
<time>2014-06-07T09:03:49Z</time>
</trkpt>
<trkpt lat="37.56917" lon="-1.1900764">
<ele>56</ele>
<time>2014-06-07T09:03:51Z</time>
</trkpt>
<trkpt lat="37.569214" lon="-1.1901253">
<ele>56</ele>
<time>2014-06-07T09:03:53Z</time>
</trkpt>
<trkpt lat="37.569252" lon="-1.1901819">
<ele>56</ele>
<time>2014-06-07T09:03:55Z</time>
</trkpt>
<trkpt lat="37.56929" lon="-1.19024">
<ele>56</ele>
<time>2014-06-07T09:03:57Z</time>
</trkpt>
<trkpt lat="37.569324" lon="-1.190295">
<ele>56</ele>
<time>2014-06-07T09:03:59Z</time>
</trkpt>
<trkpt lat="37.569363" lon="-1.1903474">
<ele>56</ele>
<time>2014-06-07T09:04:01Z</time>
</trkpt>
<trkpt lat="37.569393" lon="-1.1904023">
<ele>56</ele>
<time>2014-06-07T09:04:03Z</time>
</trkpt>
<trkpt lat="37.569427" lon="-1.1904492">
<ele>56</ele>
<time>2014-06-07T09:04:05Z</time>
</trkpt>
<trkpt lat="37.56946" lon="-1.1905001">
<ele>56</ele>
<time>2014-06-07T09:04:07Z</time>
</trkpt>
<trkpt lat="37.569492" lon="-1.190558">
<ele>56</ele>
<time>2014-06-07T09:04:09Z</time>
</trkpt>
<trkpt lat="37.569527" lon="-1.1906185">
<ele>56</ele>
<time>2014-06-07T09:04:11Z</time>
</trkpt>
<trkpt lat="37.56956" lon="-1.1906655">
<ele>56</ele>
<time>2014-06-07T09:04:13Z</time>
</trkpt>
<trkpt lat="37.56959" lon="-1.1907195">
<ele>56</ele>
<time>2014-06-07T09:04:15Z</time>
</trkpt>
<trkpt lat="37.569626" lon="-1.1907778">
<ele>56</ele>
<time>2014-06-07T09:04:17Z</time>
</trkpt>
<trkpt lat="37.56966" lon="-1.1908255">
<ele>56</ele>
<time>2014-06-07T09:04:19Z</time>
</trkpt>
<trkpt lat="37.569695" lon="-1.1908703">
<ele>56</ele>
<time>2014-06-07T09:04:21Z</time>
</trkpt>
<trkpt lat="37.569733" lon="-1.1909239">
<ele>56</ele>
<time>2014-06-07T09:04:23Z</time>
</trkpt>
<trkpt lat="37.569767" lon="-1.1909825">
<ele>56</ele>
<time>2014-06-07T09:04:25Z</time>
</trkpt>
<trkpt lat="37.5698" lon="-1.1910326">
<ele>56</ele>
<time>2014-06-07T09:04:27Z</time>
</trkpt>
<trkpt lat="37.569836" lon="-1.1910878">
<ele>56</ele>
<time>2014-06-07T09:04:29Z</time>
</trkpt>
<trkpt lat="37.569862" lon="-1.1911346">
<ele>56</ele>
<time>2014-06-07T09:04:31Z</time>
</trkpt>
<trkpt lat="37.569897" lon="-1.1911966">
<ele>56</ele>
<time>2014-06-07T09:04:33Z</time>
</trkpt>
<trkpt lat="37.569923" lon="-1.191253">
<ele>56</ele>
<time>2014-06-07T09:04:35Z</time>
</trkpt>
<trkpt lat="37.569958" lon="-1.1913106">
<ele>57</ele>
<time>2014-06-07T09:04:37Z</time>
</trkpt>
<trkpt lat="37.569996" lon="-1.1913604">
<ele>57</ele>
<time>2014-06-07T09:04:39Z</time>
</trkpt>
<trkpt lat="37.570038" lon="-1.1914141">
<ele>57</ele>
<time>2014-06-07T09:04:41Z</time>
</trkpt>
<trkpt lat="37.570076" lon="-1.1914591">
<ele>57</ele>
<time>2014-06-07T09:04:43Z</time>
</trkpt>
<trkpt lat="37.570107" lon="-1.1915057">
<ele>57</ele>
<time>2014-06-07T09:04:45Z</time>
</trkpt>
<trkpt lat="37.57014" lon="-1.1915506">
<ele>57</ele>
<time>2014-06-07T09:04:47Z</time>
</trkpt>
<trkpt lat="37.57017" lon="-1.191593">
<ele>58</ele>
<time>2014-06-07T09:04:49Z</time>
</trkpt>
<trkpt lat="37.570213" lon="-1.1916305">
<ele>58</ele>
<time>2014-06-07T09:04:51Z</time>
</trkpt>
<trkpt lat="37.57026" lon="-1.1916716">
<ele>58</ele>
<time>2014-06-07T09:04:53Z</time>
</trkpt>
<trkpt lat="37.570305" lon="-1.191718">
<ele>58</ele>
<time>2014-06-07T09:04:55Z</time>
</trkpt>
<trkpt lat="37.570347" lon="-1.1917589">
<ele>58</ele>
<time>2014-06-07T09:04:57Z</time>
</trkpt>
<trkpt lat="37.57039" lon="-1.191811">
<ele>58</ele>
<time>2014-06-07T09:04:59Z</time>
</trkpt>
<trkpt lat="37.57043" lon="-1.1918617">
<ele>58</ele>
<time>2014-06-07T09:05:01Z</time>
</trkpt>
<trkpt lat="37.570465" lon="-1.1919088">
<ele>58</ele>
<time>2014-06-07T09:05:03Z</time>
</trkpt>
<trkpt lat="37.57049" lon="-1.191964">
<ele>58</ele>
<time>2014-06-07T09:05:05Z</time>
</trkpt>
<trkpt lat="37.570522" lon="-1.1920236">
<ele>58</ele>
<time>2014-06-07T09:05:07Z</time>
</trkpt>
<trkpt lat="37.57055" lon="-1.1920866">
<ele>58</ele>
<time>2014-06-07T09:05:09Z</time>
</trkpt>
<trkpt lat="37.57057" lon="-1.1921395">
<ele>58</ele>
<time>2014-06-07T09:05:11Z</time>
</trkpt>
<trkpt lat="37.570595" lon="-1.1921923">
<ele>58</ele>
<time>2014-06-07T09:05:13Z</time>
</trkpt>
<trkpt lat="37.57062" lon="-1.1922611">
<ele>58</ele>
<time>2014-06-07T09:05:15Z</time>
</trkpt>
<trkpt lat="37.57064" lon="-1.1923165">
<ele>59</ele>
<time>2014-06-07T09:05:17Z</time>
</trkpt>
<trkpt lat="37.570656" lon="-1.1923835">
<ele>59</ele>
<time>2014-06-07T09:05:19Z</time>
</trkpt>
<trkpt lat="37.570667" lon="-1.1924427">
<ele>59</ele>
<time>2014-06-07T09:05:21Z</time>
</trkpt>
<trkpt lat="37.570683" lon="-1.1925228">
<ele>59</ele>
<time>2014-06-07T09:05:23Z</time>
</trkpt>
<trkpt lat="37.570698" lon="-1.1925868">
<ele>59</ele>
<time>2014-06-07T09:05:25Z</time>
</trkpt>
<trkpt lat="37.57071" lon="-1.1926608">
<ele>59</ele>
<time>2014-06-07T09:05:27Z</time>
</trkpt>
<trkpt lat="37.57073" lon="-1.1927209">
<ele>59</ele>
<time>2014-06-07T09:05:29Z</time>
</trkpt>
<trkpt lat="37.570747" lon="-1.1927882">
<ele>59</ele>
<time>2014-06-07T09:05:31Z</time>
</trkpt>
<trkpt lat="37.57076" lon="-1.1928488">
<ele>59</ele>
<time>2014-06-07T09:05:33Z</time>
</trkpt>
<trkpt lat="37.57077" lon="-1.192918">
<ele>59</ele>
<time>2014-06-07T09:05:35Z</time>
</trkpt>
<trkpt lat="37.570786" lon="-1.1929826">
<ele>59</ele>
<time>2014-06-07T09:05:37Z</time>
</trkpt>
<trkpt lat="37.570797" lon="-1.1930475">
<ele>59</ele>
<time>2014-06-07T09:05:39Z</time>
</trkpt>
<trkpt lat="37.57081" lon="-1.1931005">
<ele>59</ele>
<time>2014-06-07T09:05:41Z</time>
</trkpt>
<trkpt lat="37.57083" lon="-1.1931636">
<ele>59</ele>
<time>2014-06-07T09:05:43Z</time>
</trkpt>
<trkpt lat="37.57085" lon="-1.1932235">
<ele>59</ele>
<time>2014-06-07T09:05:45Z</time>
</trkpt>
<trkpt lat="37.570858" lon="-1.1932902">
<ele>59</ele>
<time>2014-06-07T09:05:47Z</time>
</trkpt>
<trkpt lat="37.570877" lon="-1.1933566">
<ele>59</ele>
<time>2014-06-07T09:05:49Z</time>
</trkpt>
<trkpt lat="37.570896" lon="-1.1934166">
<ele>59</ele>
<time>2014-06-07T09:05:51Z</time>
</trkpt>
<trkpt lat="37.57092" lon="-1.1934716">
<ele>59</ele>
<time>2014-06-07T09:05:53Z</time>
</trkpt>
<trkpt lat="37.570946" lon="-1.1935314">
<ele>59</ele>
<time>2014-06-07T09:05:55Z</time>
</trkpt>
<trkpt lat="37.57097" lon="-1.1935798">
<ele>59</ele>
<time>2014-06-07T09:05:57Z</time>
</trkpt>
<trkpt lat="37.570995" lon="-1.1936281">
<ele>59</ele>
<time>2014-06-07T09:05:59Z</time>
</trkpt>
<trkpt lat="37.57103" lon="-1.1936806">
<ele>59</ele>
<time>2014-06-07T09:06:01Z</time>
</trkpt>
<trkpt lat="37.57106" lon="-1.1937308">
<ele>59</ele>
<time>2014-06-07T09:06:03Z</time>
</trkpt>
<trkpt lat="37.57109" lon="-1.1937796">
<ele>60</ele>
<time>2014-06-07T09:06:05Z</time>
</trkpt>
<trkpt lat="37.57112" lon="-1.1938394">
<ele>60</ele>
<time>2014-06-07T09:06:07Z</time>
</trkpt>
<trkpt lat="37.571148" lon="-1.1939106">
<ele>59</ele>
<time>2014-06-07T09:06:09Z</time>
</trkpt>
<trkpt lat="37.57117" lon="-1.193974">
<ele>59</ele>
<time>2014-06-07T09:06:11Z</time>
</trkpt>
<trkpt lat="37.571205" lon="-1.19402">
<ele>60</ele>
<time>2014-06-07T09:06:13Z</time>
</trkpt>
<trkpt lat="37.57125" lon="-1.1940472">
<ele>60</ele>
<time>2014-06-07T09:06:15Z</time>
</trkpt>
<trkpt lat="37.57131" lon="-1.1940743">
<ele>60</ele>
<time>2014-06-07T09:06:17Z</time>
</trkpt>
<trkpt lat="37.57137" lon="-1.1940993">
<ele>60</ele>
<time>2014-06-07T09:06:19Z</time>
</trkpt>
<trkpt lat="37.571407" lon="-1.194117">
<ele>60</ele>
<time>2014-06-07T09:06:21Z</time>
</trkpt>
<trkpt lat="37.57146" lon="-1.1941396">
<ele>60</ele>
<time>2014-06-07T09:06:23Z</time>
</trkpt>
<trkpt lat="37.571507" lon="-1.1941677">
<ele>61</ele>
<time>2014-06-07T09:06:25Z</time>
</trkpt>
<trkpt lat="37.571556" lon="-1.1941962">
<ele>61</ele>
<time>2014-06-07T09:06:27Z</time>
</trkpt>
<trkpt lat="37.571598" lon="-1.19424">
<ele>61</ele>
<time>2014-06-07T09:06:29Z</time>
</trkpt>
<trkpt lat="37.57163" lon="-1.1942968">
<ele>61</ele>
<time>2014-06-07T09:06:31Z</time>
</trkpt>
<trkpt lat="37.57166" lon="-1.1943568">
<ele>61</ele>
<time>2014-06-07T09:06:33Z</time>
</trkpt>
<trkpt lat="37.571682" lon="-1.1944185">
<ele>61</ele>
<time>2014-06-07T09:06:35Z</time>
</trkpt>
<trkpt lat="37.571697" lon="-1.1944706">
<ele>61</ele>
<time>2014-06-07T09:06:37Z</time>
</trkpt>
<trkpt lat="37.571712" lon="-1.1945326">
<ele>61</ele>
<time>2014-06-07T09:06:39Z</time>
</trkpt>
<trkpt lat="37.571728" lon="-1.1945972">
<ele>61</ele>
<time>2014-06-07T09:06:41Z</time>
</trkpt>
<trkpt lat="37.571743" lon="-1.194667">
<ele>62</ele>
<time>2014-06-07T09:06:43Z</time>
</trkpt>
<trkpt lat="37.57175" lon="-1.1947352">
<ele>62</ele>
<time>2014-06-07T09:06:45Z</time>
</trkpt>
<trkpt lat="37.571754" lon="-1.1948103">
<ele>62</ele>
<time>2014-06-07T09:06:47Z</time>
</trkpt>
<trkpt lat="37.57176" lon="-1.194875">
<ele>62</ele>
<time>2014-06-07T09:06:49Z</time>
</trkpt>
<trkpt lat="37.57176" lon="-1.1949362">
<ele>62</ele>
<time>2014-06-07T09:06:51Z</time>
</trkpt>
<trkpt lat="37.571762" lon="-1.1949956">
<ele>62</ele>
<time>2014-06-07T09:06:53Z</time>
</trkpt>
<trkpt lat="37.57176" lon="-1.1950543">
<ele>62</ele>
<time>2014-06-07T09:06:55Z</time>
</trkpt>
<trkpt lat="37.571762" lon="-1.1951272">
<ele>62</ele>
<time>2014-06-07T09:06:57Z</time>
</trkpt>
<trkpt lat="37.571762" lon="-1.1952155">
<ele>62</ele>
<time>2014-06-07T09:06:59Z</time>
</trkpt>
<trkpt lat="37.57177" lon="-1.1952885">
<ele>62</ele>
<time>2014-06-07T09:07:01Z</time>
</trkpt>
<trkpt lat="37.571777" lon="-1.1953617">
<ele>63</ele>
<time>2014-06-07T09:07:03Z</time>
</trkpt>
<trkpt lat="37.571774" lon="-1.195428">
<ele>63</ele>
<time>2014-06-07T09:07:05Z</time>
</trkpt>
<trkpt lat="37.571774" lon="-1.195497">
<ele>62</ele>
<time>2014-06-07T09:07:07Z</time>
</trkpt>
<trkpt lat="37.571766" lon="-1.1955618">
<ele>62</ele>
<time>2014-06-07T09:07:09Z</time>
</trkpt>
<trkpt lat="37.57176" lon="-1.1956395">
<ele>63</ele>
<time>2014-06-07T09:07:11Z</time>
</trkpt>
<trkpt lat="37.571754" lon="-1.1957047">
<ele>63</ele>
<time>2014-06-07T09:07:13Z</time>
</trkpt>
<trkpt lat="37.57176" lon="-1.1957694">
<ele>63</ele>
<time>2014-06-07T09:07:15Z</time>
</trkpt>
<trkpt lat="37.57177" lon="-1.1958493">
<ele>63</ele>
<time>2014-06-07T09:07:17Z</time>
</trkpt>
<trkpt lat="37.57179" lon="-1.1959308">
<ele>63</ele>
<time>2014-06-07T09:07:19Z</time>
</trkpt>
<trkpt lat="37.571804" lon="-1.1959959">
<ele>63</ele>
<time>2014-06-07T09:07:21Z</time>
</trkpt>
<trkpt lat="37.571815" lon="-1.1960557">
<ele>63</ele>
<time>2014-06-07T09:07:23Z</time>
</trkpt>
<trkpt lat="37.571827" lon="-1.1961284">
<ele>63</ele>
<time>2014-06-07T09:07:25Z</time>
</trkpt>
<trkpt lat="37.571842" lon="-1.1961998">
<ele>63</ele>
<time>2014-06-07T09:07:27Z</time>
</trkpt>
<trkpt lat="37.57185" lon="-1.196262">
<ele>63</ele>
<time>2014-06-07T09:07:29Z</time>
</trkpt>
<trkpt lat="37.571854" lon="-1.1963099">
<ele>63</ele>
<time>2014-06-07T09:07:31Z</time>
</trkpt>
<trkpt lat="37.571865" lon="-1.1963748">
<ele>63</ele>
<time>2014-06-07T09:07:33Z</time>
</trkpt>
<trkpt lat="37.571884" lon="-1.1964506">
<ele>64</ele>
<time>2014-06-07T09:07:35Z</time>
</trkpt>
<trkpt lat="37.571903" lon="-1.1965102">
<ele>63</ele>
<time>2014-06-07T09:07:37Z</time>
</trkpt>
<trkpt lat="37.57192" lon="-1.1965762">
<ele>63</ele>
<time>2014-06-07T09:07:39Z</time>
</trkpt>
<trkpt lat="37.57193" lon="-1.1966318">
<ele>63</ele>
<time>2014-06-07T09:07:41Z</time>
</trkpt>
<trkpt lat="37.57194" lon="-1.1966889">
<ele>63</ele>
<time>2014-06-07T09:07:43Z</time>
</trkpt>
<trkpt lat="37.571953" lon="-1.1967609">
<ele>63</ele>
<time>2014-06-07T09:07:45Z</time>
</trkpt>
<trkpt lat="37.571964" lon="-1.1968371">
<ele>63</ele>
<time>2014-06-07T09:07:47Z</time>
</trkpt>
<trkpt lat="37.57197" lon="-1.1969074">
<ele>63</ele>
<time>2014-06-07T09:07:49Z</time>
</trkpt>
<trkpt lat="37.571983" lon="-1.1969697">
<ele>63</ele>
<time>2014-06-07T09:07:51Z</time>
</trkpt>
<trkpt lat="37.572002" lon="-1.197039">
<ele>63</ele>
<time>2014-06-07T09:07:53Z</time>
</trkpt>
<trkpt lat="37.57202" lon="-1.1971035">
<ele>63</ele>
<time>2014-06-07T09:07:55Z</time>
</trkpt>
<trkpt lat="37.572052" lon="-1.1971538">
<ele>63</ele>
<time>2014-06-07T09:07:57Z</time>
</trkpt>
<trkpt lat="37.57209" lon="-1.1972017">
<ele>63</ele>
<time>2014-06-07T09:07:59Z</time>
</trkpt>
<trkpt lat="37.572132" lon="-1.1972455">
<ele>63</ele>
<time>2014-06-07T09:08:01Z</time>
</trkpt>
<trkpt lat="37.572178" lon="-1.1972924">
<ele>63</ele>
<time>2014-06-07T09:08:03Z</time>
</trkpt>
<trkpt lat="37.572227" lon="-1.1973329">
<ele>63</ele>
<time>2014-06-07T09:08:05Z</time>
</trkpt>
<trkpt lat="37.57227" lon="-1.1973689">
<ele>63</ele>
<time>2014-06-07T09:08:07Z</time>
</trkpt>
<trkpt lat="37.57232" lon="-1.1974034">
<ele>63</ele>
<time>2014-06-07T09:08:09Z</time>
</trkpt>
<trkpt lat="37.57236" lon="-1.1974399">
<ele>64</ele>
<time>2014-06-07T09:08:11Z</time>
</trkpt>
<trkpt lat="37.572403" lon="-1.1974753">
<ele>64</ele>
<time>2014-06-07T09:08:13Z</time>
</trkpt>
<trkpt lat="37.57244" lon="-1.1975156">
<ele>64</ele>
<time>2014-06-07T09:08:15Z</time>
</trkpt>
<trkpt lat="37.572475" lon="-1.1975563">
<ele>64</ele>
<time>2014-06-07T09:08:17Z</time>
</trkpt>
<trkpt lat="37.572487" lon="-1.197609">
<ele>64</ele>
<time>2014-06-07T09:08:19Z</time>
</trkpt>
<trkpt lat="37.57247" lon="-1.1976603">
<ele>64</ele>
<time>2014-06-07T09:08:21Z</time>
</trkpt>
<trkpt lat="37.57246" lon="-1.19767">
<ele>64</ele>
<time>2014-06-07T09:08:23Z</time>
</trkpt>
<trkpt lat="37.57244" lon="-1.1976889">
<ele>63</ele>
<time>2014-06-07T09:08:25Z</time>
</trkpt>
<trkpt lat="37.57243" lon="-1.1977081">
<ele>63</ele>
<time>2014-06-07T09:08:27Z</time>
</trkpt>
<trkpt lat="37.57242" lon="-1.1977265">
<ele>63</ele>
<time>2014-06-07T09:08:29Z</time>
</trkpt>
<trkpt lat="37.572414" lon="-1.1977354">
<ele>63</ele>
<time>2014-06-07T09:08:31Z</time>
</trkpt>
<trkpt lat="37.572407" lon="-1.1977439">
<ele>63</ele>
<time>2014-06-07T09:08:33Z</time>
</trkpt>
<trkpt lat="37.5724" lon="-1.1977699">
<ele>62</ele>
<time>2014-06-07T09:08:35Z</time>
</trkpt>
<trkpt lat="37.5724" lon="-1.1977916">
<ele>62</ele>
<time>2014-06-07T09:08:37Z</time>
</trkpt>
<trkpt lat="37.572403" lon="-1.197809">
<ele>62</ele>
<time>2014-06-07T09:08:39Z</time>
</trkpt>
<trkpt lat="37.572388" lon="-1.1978337">
<ele>61</ele>
<time>2014-06-07T09:08:41Z</time>
</trkpt>
<trkpt lat="37.572372" lon="-1.1978505">
<ele>61</ele>
<time>2014-06-07T09:08:43Z</time>
</trkpt>
<trkpt lat="37.572388" lon="-1.1979009">
<ele>61</ele>
<time>2014-06-07T09:08:45Z</time>
</trkpt>
<trkpt lat="37.57242" lon="-1.1979424">
<ele>60</ele>
<time>2014-06-07T09:08:47Z</time>
</trkpt>
<trkpt lat="37.572456" lon="-1.1980039">
<ele>60</ele>
<time>2014-06-07T09:08:49Z</time>
</trkpt>
<trkpt lat="37.5725" lon="-1.1980636">
<ele>60</ele>
<time>2014-06-07T09:08:51Z</time>
</trkpt>
<trkpt lat="37.57254" lon="-1.1981117">
<ele>60</ele>
<time>2014-06-07T09:08:53Z</time>
</trkpt>
<trkpt lat="37.572582" lon="-1.1981596">
<ele>59</ele>
<time>2014-06-07T09:08:55Z</time>
</trkpt>
<trkpt lat="37.572624" lon="-1.1982152">
<ele>59</ele>
<time>2014-06-07T09:08:57Z</time>
</trkpt>
<trkpt lat="37.57265" lon="-1.1982671">
<ele>59</ele>
<time>2014-06-07T09:08:59Z</time>
</trkpt>
<trkpt lat="37.57268" lon="-1.1983258">
<ele>59</ele>
<time>2014-06-07T09:09:01Z</time>
</trkpt>
<trkpt lat="37.572716" lon="-1.1983737">
<ele>59</ele>
<time>2014-06-07T09:09:03Z</time>
</trkpt>
<trkpt lat="37.572742" lon="-1.1984236">
<ele>59</ele>
<time>2014-06-07T09:09:05Z</time>
</trkpt>
<trkpt lat="37.572777" lon="-1.1984802">
<ele>59</ele>
<time>2014-06-07T09:09:07Z</time>
</trkpt>
<trkpt lat="37.57281" lon="-1.198543">
<ele>59</ele>
<time>2014-06-07T09:09:09Z</time>
</trkpt>
<trkpt lat="37.57284" lon="-1.1986009">
<ele>59</ele>
<time>2014-06-07T09:09:11Z</time>
</trkpt>
<trkpt lat="37.572872" lon="-1.1986692">
<ele>59</ele>
<time>2014-06-07T09:09:13Z</time>
</trkpt>
<trkpt lat="37.572906" lon="-1.1987383">
<ele>59</ele>
<time>2014-06-07T09:09:15Z</time>
</trkpt>
<trkpt lat="37.572933" lon="-1.1988033">
<ele>59</ele>
<time>2014-06-07T09:09:17Z</time>
</trkpt>
<trkpt lat="37.57296" lon="-1.1988505">
<ele>59</ele>
<time>2014-06-07T09:09:19Z</time>
</trkpt>
<trkpt lat="37.572987" lon="-1.1989118">
<ele>59</ele>
<time>2014-06-07T09:09:21Z</time>
</trkpt>
<trkpt lat="37.573017" lon="-1.1989789">
<ele>59</ele>
<time>2014-06-07T09:09:23Z</time>
</trkpt>
<trkpt lat="37.573044" lon="-1.1990453">
<ele>59</ele>
<time>2014-06-07T09:09:25Z</time>
</trkpt>
<trkpt lat="37.573067" lon="-1.1991063">
<ele>59</ele>
<time>2014-06-07T09:09:27Z</time>
</trkpt>
<trkpt lat="37.573093" lon="-1.199168">
<ele>59</ele>
<time>2014-06-07T09:09:29Z</time>
</trkpt>
<trkpt lat="37.573128" lon="-1.1992276">
<ele>58</ele>
<time>2014-06-07T09:09:31Z</time>
</trkpt>
<trkpt lat="37.573147" lon="-1.1992713">
<ele>58</ele>
<time>2014-06-07T09:09:33Z</time>
</trkpt>
<trkpt lat="37.57316" lon="-1.1993358">
<ele>58</ele>
<time>2014-06-07T09:09:35Z</time>
</trkpt>
<trkpt lat="37.573177" lon="-1.1993994">
<ele>58</ele>
<time>2014-06-07T09:09:37Z</time>
</trkpt>
<trkpt lat="37.5732" lon="-1.1994663">
<ele>58</ele>
<time>2014-06-07T09:09:39Z</time>
</trkpt>
<trkpt lat="37.573223" lon="-1.1995322">
<ele>58</ele>
<time>2014-06-07T09:09:41Z</time>
</trkpt>
<trkpt lat="37.573246" lon="-1.1995997">
<ele>58</ele>
<time>2014-06-07T09:09:43Z</time>
</trkpt>
<trkpt lat="37.573277" lon="-1.1996529">
<ele>58</ele>
<time>2014-06-07T09:09:45Z</time>
</trkpt>
<trkpt lat="37.57331" lon="-1.1997108">
<ele>58</ele>
<time>2014-06-07T09:09:47Z</time>
</trkpt>
<trkpt lat="37.57334" lon="-1.1997675">
<ele>58</ele>
<time>2014-06-07T09:09:49Z</time>
</trkpt>
<trkpt lat="37.57338" lon="-1.1998302">
<ele>58</ele>
<time>2014-06-07T09:09:51Z</time>
</trkpt>
<trkpt lat="37.573414" lon="-1.1998942">
<ele>58</ele>
<time>2014-06-07T09:09:53Z</time>
</trkpt>
<trkpt lat="37.573444" lon="-1.199963">
<ele>58</ele>
<time>2014-06-07T09:09:55Z</time>
</trkpt>
<trkpt lat="37.573467" lon="-1.2000118">
<ele>58</ele>
<time>2014-06-07T09:09:57Z</time>
</trkpt>
<trkpt lat="37.573483" lon="-1.200046">
<ele>58</ele>
<time>2014-06-07T09:09:59Z</time>
</trkpt>
<trkpt lat="37.57352" lon="-1.2001116">
<ele>58</ele>
<time>2014-06-07T09:10:01Z</time>
</trkpt>
<trkpt lat="37.573544" lon="-1.2001879">
<ele>58</ele>
<time>2014-06-07T09:10:03Z</time>
</trkpt>
<trkpt lat="37.57357" lon="-1.2002546">
<ele>58</ele>
<time>2014-06-07T09:10:05Z</time>
</trkpt>
<trkpt lat="37.573593" lon="-1.200321">
<ele>58</ele>
<time>2014-06-07T09:10:07Z</time>
</trkpt>
<trkpt lat="37.573612" lon="-1.2003858">
<ele>58</ele>
<time>2014-06-07T09:10:09Z</time>
</trkpt>
<trkpt lat="37.573624" lon="-1.2004387">
<ele>58</ele>
<time>2014-06-07T09:10:11Z</time>
</trkpt>
<trkpt lat="37.57364" lon="-1.2005081">
<ele>58</ele>
<time>2014-06-07T09:10:13Z</time>
</trkpt>
<trkpt lat="37.573643" lon="-1.2005848">
<ele>58</ele>
<time>2014-06-07T09:10:15Z</time>
</trkpt>
<trkpt lat="37.573643" lon="-1.200644">
<ele>58</ele>
<time>2014-06-07T09:10:17Z</time>
</trkpt>
<trkpt lat="37.57364" lon="-1.2007141">
<ele>57</ele>
<time>2014-06-07T09:10:19Z</time>
</trkpt>
<trkpt lat="37.57364" lon="-1.2007849">
<ele>57</ele>
<time>2014-06-07T09:10:21Z</time>
</trkpt>
<trkpt lat="37.57364" lon="-1.2008644">
<ele>57</ele>
<time>2014-06-07T09:10:23Z</time>
</trkpt>
<trkpt lat="37.57364" lon="-1.2009268">
<ele>57</ele>
<time>2014-06-07T09:10:25Z</time>
</trkpt>
<trkpt lat="37.573643" lon="-1.2009915">
<ele>57</ele>
<time>2014-06-07T09:10:27Z</time>
</trkpt>
<trkpt lat="37.573647" lon="-1.2010586">
<ele>57</ele>
<time>2014-06-07T09:10:29Z</time>
</trkpt>
<trkpt lat="37.573666" lon="-1.2011251">
<ele>57</ele>
<time>2014-06-07T09:10:31Z</time>
</trkpt>
<trkpt lat="37.573685" lon="-1.2011967">
<ele>57</ele>
<time>2014-06-07T09:10:33Z</time>
</trkpt>
<trkpt lat="37.5737" lon="-1.2012516">
<ele>57</ele>
<time>2014-06-07T09:10:35Z</time>
</trkpt>
<trkpt lat="37.573723" lon="-1.2013025">
<ele>56</ele>
<time>2014-06-07T09:10:37Z</time>
</trkpt>
<trkpt lat="37.57375" lon="-1.201357">
<ele>56</ele>
<time>2014-06-07T09:10:39Z</time>
</trkpt>
<trkpt lat="37.573772" lon="-1.201418">
<ele>56</ele>
<time>2014-06-07T09:10:41Z</time>
</trkpt>
<trkpt lat="37.573788" lon="-1.2014763">
<ele>56</ele>
<time>2014-06-07T09:10:43Z</time>
</trkpt>
<trkpt lat="37.573807" lon="-1.2015557">
<ele>57</ele>
<time>2014-06-07T09:10:45Z</time>
</trkpt>
<trkpt lat="37.57383" lon="-1.2016133">
<ele>57</ele>
<time>2014-06-07T09:10:47Z</time>
</trkpt>
<trkpt lat="37.573856" lon="-1.2016908">
<ele>57</ele>
<time>2014-06-07T09:10:49Z</time>
</trkpt>
<trkpt lat="37.57387" lon="-1.2017608">
<ele>56</ele>
<time>2014-06-07T09:10:51Z</time>
</trkpt>
<trkpt lat="37.573875" lon="-1.2018276">
<ele>56</ele>
<time>2014-06-07T09:10:53Z</time>
</trkpt>
<trkpt lat="37.573883" lon="-1.2019032">
<ele>56</ele>
<time>2014-06-07T09:10:55Z</time>
</trkpt>
<trkpt lat="37.573895" lon="-1.2019634">
<ele>56</ele>
<time>2014-06-07T09:10:57Z</time>
</trkpt>
<trkpt lat="37.573906" lon="-1.2020316">
<ele>56</ele>
<time>2014-06-07T09:10:59Z</time>
</trkpt>
<trkpt lat="37.57391" lon="-1.2020956">
<ele>56</ele>
<time>2014-06-07T09:11:01Z</time>
</trkpt>
<trkpt lat="37.573914" lon="-1.2021527">
<ele>56</ele>
<time>2014-06-07T09:11:03Z</time>
</trkpt>
<trkpt lat="37.57392" lon="-1.2022125">
<ele>56</ele>
<time>2014-06-07T09:11:05Z</time>
</trkpt>
<trkpt lat="37.573933" lon="-1.2022753">
<ele>56</ele>
<time>2014-06-07T09:11:07Z</time>
</trkpt>
<trkpt lat="37.57395" lon="-1.2023412">
<ele>56</ele>
<time>2014-06-07T09:11:09Z</time>
</trkpt>
<trkpt lat="37.573975" lon="-1.2024097">
<ele>56</ele>
<time>2014-06-07T09:11:11Z</time>
</trkpt>
<trkpt lat="37.573994" lon="-1.2024744">
<ele>56</ele>
<time>2014-06-07T09:11:13Z</time>
</trkpt>
<trkpt lat="37.574005" lon="-1.202526">
<ele>55</ele>
<time>2014-06-07T09:11:15Z</time>
</trkpt>
<trkpt lat="37.574024" lon="-1.2025938">
<ele>56</ele>
<time>2014-06-07T09:11:17Z</time>
</trkpt>
<trkpt lat="37.574036" lon="-1.2026534">
<ele>55</ele>
<time>2014-06-07T09:11:19Z</time>
</trkpt>
<trkpt lat="37.57405" lon="-1.2027205">
<ele>55</ele>
<time>2014-06-07T09:11:21Z</time>
</trkpt>
<trkpt lat="37.574066" lon="-1.2027931">
<ele>55</ele>
<time>2014-06-07T09:11:23Z</time>
</trkpt>
<trkpt lat="37.574085" lon="-1.2028435">
<ele>55</ele>
<time>2014-06-07T09:11:25Z</time>
</trkpt>
<trkpt lat="37.574097" lon="-1.202927">
<ele>55</ele>
<time>2014-06-07T09:11:27Z</time>
</trkpt>
<trkpt lat="37.574104" lon="-1.2030007">
<ele>55</ele>
<time>2014-06-07T09:11:29Z</time>
</trkpt>
<trkpt lat="37.57411" lon="-1.2030618">
<ele>55</ele>
<time>2014-06-07T09:11:31Z</time>
</trkpt>
<trkpt lat="37.574112" lon="-1.2031316">
<ele>55</ele>
<time>2014-06-07T09:11:33Z</time>
</trkpt>
<trkpt lat="37.57412" lon="-1.203202">
<ele>55</ele>
<time>2014-06-07T09:11:35Z</time>
</trkpt>
<trkpt lat="37.57413" lon="-1.203277">
<ele>55</ele>
<time>2014-06-07T09:11:37Z</time>
</trkpt>
<trkpt lat="37.574146" lon="-1.2033465">
<ele>55</ele>
<time>2014-06-07T09:11:39Z</time>
</trkpt>
<trkpt lat="37.57416" lon="-1.2034044">
<ele>56</ele>
<time>2014-06-07T09:11:41Z</time>
</trkpt>
<trkpt lat="37.574177" lon="-1.2034708">
<ele>56</ele>
<time>2014-06-07T09:11:43Z</time>
</trkpt>
<trkpt lat="37.574184" lon="-1.2035383">
<ele>56</ele>
<time>2014-06-07T09:11:45Z</time>
</trkpt>
<trkpt lat="37.574184" lon="-1.2036088">
<ele>56</ele>
<time>2014-06-07T09:11:47Z</time>
</trkpt>
<trkpt lat="37.574184" lon="-1.2036785">
<ele>56</ele>
<time>2014-06-07T09:11:49Z</time>
</trkpt>
<trkpt lat="37.574184" lon="-1.2037488">
<ele>56</ele>
<time>2014-06-07T09:11:51Z</time>
</trkpt>
<trkpt lat="37.574192" lon="-1.2038176">
<ele>56</ele>
<time>2014-06-07T09:11:53Z</time>
</trkpt>
<trkpt lat="37.5742" lon="-1.2038834">
<ele>56</ele>
<time>2014-06-07T09:11:55Z</time>
</trkpt>
<trkpt lat="37.57421" lon="-1.203945">
<ele>56</ele>
<time>2014-06-07T09:11:57Z</time>
</trkpt>
<trkpt lat="37.574207" lon="-1.2040176">
<ele>56</ele>
<time>2014-06-07T09:11:59Z</time>
</trkpt>
<trkpt lat="37.57421" lon="-1.204077">
<ele>56</ele>
<time>2014-06-07T09:12:01Z</time>
</trkpt>
<trkpt lat="37.574203" lon="-1.204143">
<ele>56</ele>
<time>2014-06-07T09:12:03Z</time>
</trkpt>
<trkpt lat="37.574203" lon="-1.2042029">
<ele>56</ele>
<time>2014-06-07T09:12:05Z</time>
</trkpt>
<trkpt lat="37.574207" lon="-1.2042719">
<ele>56</ele>
<time>2014-06-07T09:12:07Z</time>
</trkpt>
<trkpt lat="37.574215" lon="-1.2043326">
<ele>56</ele>
<time>2014-06-07T09:12:09Z</time>
</trkpt>
<trkpt lat="37.574234" lon="-1.2043966">
<ele>56</ele>
<time>2014-06-07T09:12:11Z</time>
</trkpt>
<trkpt lat="37.574257" lon="-1.2044554">
<ele>56</ele>
<time>2014-06-07T09:12:13Z</time>
</trkpt>
<trkpt lat="37.574284" lon="-1.2045225">
<ele>56</ele>
<time>2014-06-07T09:12:15Z</time>
</trkpt>
<trkpt lat="37.5743" lon="-1.2045959">
<ele>56</ele>
<time>2014-06-07T09:12:17Z</time>
</trkpt>
<trkpt lat="37.574295" lon="-1.204661">
<ele>56</ele>
<time>2014-06-07T09:12:19Z</time>
</trkpt>
<trkpt lat="37.57429" lon="-1.204739">
<ele>56</ele>
<time>2014-06-07T09:12:21Z</time>
</trkpt>
<trkpt lat="37.574284" lon="-1.2047739">
<ele>56</ele>
<time>2014-06-07T09:12:23Z</time>
</trkpt>
<trkpt lat="37.57428" lon="-1.2048337">
<ele>56</ele>
<time>2014-06-07T09:12:25Z</time>
</trkpt>
<trkpt lat="37.57427" lon="-1.2049">
<ele>56</ele>
<time>2014-06-07T09:12:27Z</time>
</trkpt>
<trkpt lat="37.574257" lon="-1.2049692">
<ele>56</ele>
<time>2014-06-07T09:12:29Z</time>
</trkpt>
<trkpt lat="37.574245" lon="-1.2050399">
<ele>56</ele>
<time>2014-06-07T09:12:31Z</time>
</trkpt>
<trkpt lat="37.574238" lon="-1.2051">
<ele>56</ele>
<time>2014-06-07T09:12:33Z</time>
</trkpt>
<trkpt lat="37.574238" lon="-1.205174">
<ele>56</ele>
<time>2014-06-07T09:12:35Z</time>
</trkpt>
<trkpt lat="37.574234" lon="-1.205248">
<ele>56</ele>
<time>2014-06-07T09:12:37Z</time>
</trkpt>
<trkpt lat="37.574226" lon="-1.2053089">
<ele>56</ele>
<time>2014-06-07T09:12:39Z</time>
</trkpt>
<trkpt lat="37.574215" lon="-1.2053612">
<ele>56</ele>
<time>2014-06-07T09:12:41Z</time>
</trkpt>
<trkpt lat="37.5742" lon="-1.205416">
<ele>56</ele>
<time>2014-06-07T09:12:43Z</time>
</trkpt>
<trkpt lat="37.574184" lon="-1.2054738">
<ele>56</ele>
<time>2014-06-07T09:12:45Z</time>
</trkpt>
<trkpt lat="37.57417" lon="-1.2055444">
<ele>56</ele>
<time>2014-06-07T09:12:47Z</time>
</trkpt>
<trkpt lat="37.57416" lon="-1.2056051">
<ele>56</ele>
<time>2014-06-07T09:12:49Z</time>
</trkpt>
<trkpt lat="37.574154" lon="-1.2056755">
<ele>56</ele>
<time>2014-06-07T09:12:51Z</time>
</trkpt>
<trkpt lat="37.57415" lon="-1.205753">
<ele>56</ele>
<time>2014-06-07T09:12:53Z</time>
</trkpt>
<trkpt lat="37.574142" lon="-1.2058147">
<ele>56</ele>
<time>2014-06-07T09:12:55Z</time>
</trkpt>
<trkpt lat="37.57414" lon="-1.2058775">
<ele>56</ele>
<time>2014-06-07T09:12:57Z</time>
</trkpt>
<trkpt lat="37.57413" lon="-1.2059274">
<ele>56</ele>
<time>2014-06-07T09:12:59Z</time>
</trkpt>
<trkpt lat="37.574123" lon="-1.2059817">
<ele>56</ele>
<time>2014-06-07T09:13:01Z</time>
</trkpt>
<trkpt lat="37.57411" lon="-1.2060449">
<ele>56</ele>
<time>2014-06-07T09:13:03Z</time>
</trkpt>
<trkpt lat="37.57409" lon="-1.2061132">
<ele>56</ele>
<time>2014-06-07T09:13:05Z</time>
</trkpt>
<trkpt lat="37.574074" lon="-1.2061801">
<ele>56</ele>
<time>2014-06-07T09:13:07Z</time>
</trkpt>
<trkpt lat="37.574043" lon="-1.2062445">
<ele>56</ele>
<time>2014-06-07T09:13:09Z</time>
</trkpt>
<trkpt lat="37.574017" lon="-1.2063051">
<ele>56</ele>
<time>2014-06-07T09:13:11Z</time>
</trkpt>
<trkpt lat="37.573986" lon="-1.2063637">
<ele>56</ele>
<time>2014-06-07T09:13:13Z</time>
</trkpt>
<trkpt lat="37.57396" lon="-1.2064159">
<ele>56</ele>
<time>2014-06-07T09:13:15Z</time>
</trkpt>
<trkpt lat="37.573933" lon="-1.2064699">
<ele>56</ele>
<time>2014-06-07T09:13:17Z</time>
</trkpt>
<trkpt lat="37.573906" lon="-1.2065353">
<ele>56</ele>
<time>2014-06-07T09:13:19Z</time>
</trkpt>
<trkpt lat="37.573883" lon="-1.2065861">
<ele>56</ele>
<time>2014-06-07T09:13:21Z</time>
</trkpt>
<trkpt lat="37.573853" lon="-1.2066432">
<ele>56</ele>
<time>2014-06-07T09:13:23Z</time>
</trkpt>
<trkpt lat="37.57383" lon="-1.2066976">
<ele>56</ele>
<time>2014-06-07T09:13:25Z</time>
</trkpt>
<trkpt lat="37.5738" lon="-1.2067623">
<ele>57</ele>
<time>2014-06-07T09:13:27Z</time>
</trkpt>
<trkpt lat="37.57377" lon="-1.2068223">
<ele>56</ele>
<time>2014-06-07T09:13:29Z</time>
</trkpt>
<trkpt lat="37.57374" lon="-1.2068784">
<ele>56</ele>
<time>2014-06-07T09:13:31Z</time>
</trkpt>
<trkpt lat="37.57371" lon="-1.2069275">
<ele>57</ele>
<time>2014-06-07T09:13:33Z</time>
</trkpt>
<trkpt lat="37.57369" lon="-1.2069812">
<ele>57</ele>
<time>2014-06-07T09:13:35Z</time>
</trkpt>
<trkpt lat="37.573666" lon="-1.207044">
<ele>57</ele>
<time>2014-06-07T09:13:37Z</time>
</trkpt>
<trkpt lat="37.573643" lon="-1.2071066">
<ele>56</ele>
<time>2014-06-07T09:13:39Z</time>
</trkpt>
<trkpt lat="37.573616" lon="-1.2071763">
<ele>56</ele>
<time>2014-06-07T09:13:41Z</time>
</trkpt>
<trkpt lat="37.57358" lon="-1.2072389">
<ele>56</ele>
<time>2014-06-07T09:13:43Z</time>
</trkpt>
<trkpt lat="37.573555" lon="-1.2072898">
<ele>56</ele>
<time>2014-06-07T09:13:45Z</time>
</trkpt>
<trkpt lat="37.57352" lon="-1.2073373">
<ele>57</ele>
<time>2014-06-07T09:13:47Z</time>
</trkpt>
<trkpt lat="37.573486" lon="-1.2073836">
<ele>57</ele>
<time>2014-06-07T09:13:49Z</time>
</trkpt>
<trkpt lat="37.57345" lon="-1.2074335">
<ele>57</ele>
<time>2014-06-07T09:13:51Z</time>
</trkpt>
<trkpt lat="37.573418" lon="-1.2074807">
<ele>57</ele>
<time>2014-06-07T09:13:53Z</time>
</trkpt>
<trkpt lat="37.573395" lon="-1.2075366">
<ele>57</ele>
<time>2014-06-07T09:13:55Z</time>
</trkpt>
<trkpt lat="37.573376" lon="-1.2075939">
<ele>57</ele>
<time>2014-06-07T09:13:57Z</time>
</trkpt>
<trkpt lat="37.573353" lon="-1.2076619">
<ele>57</ele>
<time>2014-06-07T09:13:59Z</time>
</trkpt>
<trkpt lat="37.57333" lon="-1.2077254">
<ele>57</ele>
<time>2014-06-07T09:14:01Z</time>
</trkpt>
<trkpt lat="37.573307" lon="-1.2077813">
<ele>57</ele>
<time>2014-06-07T09:14:03Z</time>
</trkpt>
<trkpt lat="37.57327" lon="-1.2078274">
<ele>57</ele>
<time>2014-06-07T09:14:05Z</time>
</trkpt>
<trkpt lat="37.573223" lon="-1.2078567">
<ele>57</ele>
<time>2014-06-07T09:14:07Z</time>
</trkpt>
<trkpt lat="37.57318" lon="-1.2078964">
<ele>57</ele>
<time>2014-06-07T09:14:09Z</time>
</trkpt>
<trkpt lat="37.57314" lon="-1.2079325">
<ele>57</ele>
<time>2014-06-07T09:14:11Z</time>
</trkpt>
<trkpt lat="37.57309" lon="-1.2079756">
<ele>57</ele>
<time>2014-06-07T09:14:13Z</time>
</trkpt>
<trkpt lat="37.573048" lon="-1.2080184">
<ele>57</ele>
<time>2014-06-07T09:14:15Z</time>
</trkpt>
<trkpt lat="37.57301" lon="-1.2080618">
<ele>57</ele>
<time>2014-06-07T09:14:17Z</time>
</trkpt>
<trkpt lat="37.57297" lon="-1.2081039">
<ele>57</ele>
<time>2014-06-07T09:14:19Z</time>
</trkpt>
<trkpt lat="37.572945" lon="-1.2081532">
<ele>57</ele>
<time>2014-06-07T09:14:21Z</time>
</trkpt>
<trkpt lat="37.572956" lon="-1.2082044">
<ele>57</ele>
<time>2014-06-07T09:14:23Z</time>
</trkpt>
<trkpt lat="37.572983" lon="-1.2082751">
<ele>57</ele>
<time>2014-06-07T09:14:25Z</time>
</trkpt>
<trkpt lat="37.573017" lon="-1.2083327">
<ele>57</ele>
<time>2014-06-07T09:14:27Z</time>
</trkpt>
<trkpt lat="37.57305" lon="-1.2083801">
<ele>57</ele>
<time>2014-06-07T09:14:29Z</time>
</trkpt>
<trkpt lat="37.573082" lon="-1.2084256">
<ele>57</ele>
<time>2014-06-07T09:14:31Z</time>
</trkpt>
<trkpt lat="37.573124" lon="-1.2084748">
<ele>57</ele>
<time>2014-06-07T09:14:33Z</time>
</trkpt>
<trkpt lat="37.57317" lon="-1.2085171">
<ele>57</ele>
<time>2014-06-07T09:14:35Z</time>
</trkpt>
<trkpt lat="37.573208" lon="-1.2085485">
<ele>57</ele>
<time>2014-06-07T09:14:37Z</time>
</trkpt>
<trkpt lat="37.57327" lon="-1.208546">
<ele>57</ele>
<time>2014-06-07T09:14:39Z</time>
</trkpt>
<trkpt lat="37.573277" lon="-1.2085011">
<ele>57</ele>
<time>2014-06-07T09:14:41Z</time>
</trkpt>
<trkpt lat="37.573273" lon="-1.2084353">
<ele>57</ele>
<time>2014-06-07T09:14:43Z</time>
</trkpt>
<trkpt lat="37.57328" lon="-1.2083582">
<ele>57</ele>
<time>2014-06-07T09:14:45Z</time>
</trkpt>
<trkpt lat="37.57329" lon="-1.2082969">
<ele>57</ele>
<time>2014-06-07T09:14:47Z</time>
</trkpt>
<trkpt lat="37.57331" lon="-1.2082299">
<ele>57</ele>
<time>2014-06-07T09:14:49Z</time>
</trkpt>
<trkpt lat="37.573334" lon="-1.2081658">
<ele>57</ele>
<time>2014-06-07T09:14:51Z</time>
</trkpt>
<trkpt lat="37.573353" lon="-1.2081065">
<ele>57</ele>
<time>2014-06-07T09:14:53Z</time>
</trkpt>
<trkpt lat="37.573364" lon="-1.2080485">
<ele>57</ele>
<time>2014-06-07T09:14:55Z</time>
</trkpt>
<trkpt lat="37.57336" lon="-1.2079806">
<ele>57</ele>
<time>2014-06-07T09:14:57Z</time>
</trkpt>
<trkpt lat="37.573326" lon="-1.2079309">
<ele>56</ele>
<time>2014-06-07T09:14:59Z</time>
</trkpt>
<trkpt lat="37.57328" lon="-1.2078822">
<ele>56</ele>
<time>2014-06-07T09:15:01Z</time>
</trkpt>
<trkpt lat="37.57326" lon="-1.2078241">
<ele>56</ele>
<time>2014-06-07T09:15:03Z</time>
</trkpt>
<trkpt lat="37.573284" lon="-1.2077912">
<ele>56</ele>
<time>2014-06-07T09:15:05Z</time>
</trkpt>
<trkpt lat="37.57332" lon="-1.2077434">
<ele>56</ele>
<time>2014-06-07T09:15:07Z</time>
</trkpt>
<trkpt lat="37.57335" lon="-1.2076843">
<ele>56</ele>
<time>2014-06-07T09:15:09Z</time>
</trkpt>
<trkpt lat="37.573376" lon="-1.2076234">
<ele>56</ele>
<time>2014-06-07T09:15:11Z</time>
</trkpt>
<trkpt lat="37.573395" lon="-1.2075673">
<ele>56</ele>
<time>2014-06-07T09:15:13Z</time>
</trkpt>
<trkpt lat="37.57341" lon="-1.2074994">
<ele>56</ele>
<time>2014-06-07T09:15:15Z</time>
</trkpt>
<trkpt lat="37.573425" lon="-1.2074281">
<ele>56</ele>
<time>2014-06-07T09:15:17Z</time>
</trkpt>
<trkpt lat="37.573463" lon="-1.2073739">
<ele>56</ele>
<time>2014-06-07T09:15:19Z</time>
</trkpt>
<trkpt lat="37.573494" lon="-1.207333">
<ele>56</ele>
<time>2014-06-07T09:15:21Z</time>
</trkpt>
<trkpt lat="37.57354" lon="-1.2072834">
<ele>56</ele>
<time>2014-06-07T09:15:23Z</time>
</trkpt>
<trkpt lat="37.57358" lon="-1.207236">
<ele>56</ele>
<time>2014-06-07T09:15:25Z</time>
</trkpt>
<trkpt lat="37.573612" lon="-1.207195">
<ele>56</ele>
<time>2014-06-07T09:15:27Z</time>
</trkpt>
<trkpt lat="37.573647" lon="-1.2071472">
<ele>56</ele>
<time>2014-06-07T09:15:29Z</time>
</trkpt>
<trkpt lat="37.573673" lon="-1.2070875">
<ele>55</ele>
<time>2014-06-07T09:15:31Z</time>
</trkpt>
<trkpt lat="37.573704" lon="-1.2070227">
<ele>55</ele>
<time>2014-06-07T09:15:33Z</time>
</trkpt>
<trkpt lat="37.57373" lon="-1.2069597">
<ele>55</ele>
<time>2014-06-07T09:15:35Z</time>
</trkpt>
<trkpt lat="37.573757" lon="-1.2068996">
<ele>55</ele>
<time>2014-06-07T09:15:37Z</time>
</trkpt>
<trkpt lat="37.573776" lon="-1.206834">
<ele>55</ele>
<time>2014-06-07T09:15:39Z</time>
</trkpt>
<trkpt lat="37.57379" lon="-1.2067478">
<ele>55</ele>
<time>2014-06-07T09:15:41Z</time>
</trkpt>
<trkpt lat="37.573814" lon="-1.2066704">
<ele>55</ele>
<time>2014-06-07T09:15:43Z</time>
</trkpt>
<trkpt lat="37.57384" lon="-1.206603">
<ele>55</ele>
<time>2014-06-07T09:15:45Z</time>
</trkpt>
<trkpt lat="37.573868" lon="-1.2065518">
<ele>55</ele>
<time>2014-06-07T09:15:47Z</time>
</trkpt>
<trkpt lat="37.57389" lon="-1.2065226">
<ele>55</ele>
<time>2014-06-07T09:15:49Z</time>
</trkpt>
<trkpt lat="37.573917" lon="-1.206475">
<ele>56</ele>
<time>2014-06-07T09:15:51Z</time>
</trkpt>
<trkpt lat="37.573956" lon="-1.2064083">
<ele>56</ele>
<time>2014-06-07T09:15:53Z</time>
</trkpt>
<trkpt lat="37.57398" lon="-1.2063631">
<ele>56</ele>
<time>2014-06-07T09:15:55Z</time>
</trkpt>
<trkpt lat="37.57401" lon="-1.2063165">
<ele>56</ele>
<time>2014-06-07T09:15:57Z</time>
</trkpt>
<trkpt lat="37.574043" lon="-1.206268">
<ele>56</ele>
<time>2014-06-07T09:15:59Z</time>
</trkpt>
<trkpt lat="37.574074" lon="-1.2062172">
<ele>56</ele>
<time>2014-06-07T09:16:01Z</time>
</trkpt>
<trkpt lat="37.574097" lon="-1.2061611">
<ele>56</ele>
<time>2014-06-07T09:16:03Z</time>
</trkpt>
<trkpt lat="37.57412" lon="-1.2060874">
<ele>56</ele>
<time>2014-06-07T09:16:05Z</time>
</trkpt>
<trkpt lat="37.57414" lon="-1.2060113">
<ele>56</ele>
<time>2014-06-07T09:16:07Z</time>
</trkpt>
<trkpt lat="37.57415" lon="-1.2059559">
<ele>55</ele>
<time>2014-06-07T09:16:09Z</time>
</trkpt>
<trkpt lat="37.574158" lon="-1.2058897">
<ele>55</ele>
<time>2014-06-07T09:16:11Z</time>
</trkpt>
<trkpt lat="37.574173" lon="-1.2058158">
<ele>55</ele>
<time>2014-06-07T09:16:13Z</time>
</trkpt>
<trkpt lat="37.574184" lon="-1.2057537">
<ele>55</ele>
<time>2014-06-07T09:16:15Z</time>
</trkpt>
<trkpt lat="37.574192" lon="-1.2056981">
<ele>55</ele>
<time>2014-06-07T09:16:17Z</time>
</trkpt>
<trkpt lat="37.5742" lon="-1.2056268">
<ele>55</ele>
<time>2014-06-07T09:16:19Z</time>
</trkpt>
<trkpt lat="37.57421" lon="-1.2055647">
<ele>55</ele>
<time>2014-06-07T09:16:21Z</time>
</trkpt>
<trkpt lat="37.574223" lon="-1.2054963">
<ele>55</ele>
<time>2014-06-07T09:16:23Z</time>
</trkpt>
<trkpt lat="37.57424" lon="-1.2054353">
<ele>55</ele>
<time>2014-06-07T09:16:25Z</time>
</trkpt>
<trkpt lat="37.57425" lon="-1.2053791">
<ele>55</ele>
<time>2014-06-07T09:16:27Z</time>
</trkpt>
<trkpt lat="37.574265" lon="-1.2053252">
<ele>55</ele>
<time>2014-06-07T09:16:29Z</time>
</trkpt>
<trkpt lat="37.574272" lon="-1.2052583">
<ele>55</ele>
<time>2014-06-07T09:16:31Z</time>
</trkpt>
<trkpt lat="37.574276" lon="-1.2051724">
<ele>55</ele>
<time>2014-06-07T09:16:33Z</time>
</trkpt>
<trkpt lat="37.57428" lon="-1.205089">
<ele>55</ele>
<time>2014-06-07T09:16:35Z</time>
</trkpt>
<trkpt lat="37.574284" lon="-1.2050096">
<ele>55</ele>
<time>2014-06-07T09:16:37Z</time>
</trkpt>
<trkpt lat="37.57429" lon="-1.204935">
<ele>55</ele>
<time>2014-06-07T09:16:39Z</time>
</trkpt>
<trkpt lat="37.5743" lon="-1.2048689">
<ele>55</ele>
<time>2014-06-07T09:16:41Z</time>
</trkpt>
<trkpt lat="37.574306" lon="-1.2048087">
<ele>55</ele>
<time>2014-06-07T09:16:43Z</time>
</trkpt>
<trkpt lat="37.57431" lon="-1.204748">
<ele>55</ele>
<time>2014-06-07T09:16:45Z</time>
</trkpt>
<trkpt lat="37.574314" lon="-1.2046794">
<ele>55</ele>
<time>2014-06-07T09:16:47Z</time>
</trkpt>
<trkpt lat="37.57431" lon="-1.2046036">
<ele>55</ele>
<time>2014-06-07T09:16:49Z</time>
</trkpt>
<trkpt lat="37.5743" lon="-1.2045351">
<ele>55</ele>
<time>2014-06-07T09:16:51Z</time>
</trkpt>
<trkpt lat="37.57428" lon="-1.2044832">
<ele>55</ele>
<time>2014-06-07T09:16:53Z</time>
</trkpt>
<trkpt lat="37.574265" lon="-1.2044203">
<ele>55</ele>
<time>2014-06-07T09:16:55Z</time>
</trkpt>
<trkpt lat="37.57425" lon="-1.2043544">
<ele>55</ele>
<time>2014-06-07T09:16:57Z</time>
</trkpt>
<trkpt lat="37.57423" lon="-1.204297">
<ele>55</ele>
<time>2014-06-07T09:16:59Z</time>
</trkpt>
<trkpt lat="37.574215" lon="-1.2042056">
<ele>55</ele>
<time>2014-06-07T09:17:02Z</time>
</trkpt>
<trkpt lat="37.57421" lon="-1.2041444">
<ele>55</ele>
<time>2014-06-07T09:17:04Z</time>
</trkpt>
<trkpt lat="37.574226" lon="-1.2040673">
<ele>55</ele>
<time>2014-06-07T09:17:06Z</time>
</trkpt>
<trkpt lat="37.574238" lon="-1.2040019">
<ele>55</ele>
<time>2014-06-07T09:17:08Z</time>
</trkpt>
<trkpt lat="37.574234" lon="-1.2039278">
<ele>55</ele>
<time>2014-06-07T09:17:10Z</time>
</trkpt>
<trkpt lat="37.574234" lon="-1.2038562">
<ele>55</ele>
<time>2014-06-07T09:17:12Z</time>
</trkpt>
<trkpt lat="37.57423" lon="-1.2037793">
<ele>55</ele>
<time>2014-06-07T09:17:14Z</time>
</trkpt>
<trkpt lat="37.574226" lon="-1.2037153">
<ele>55</ele>
<time>2014-06-07T09:17:16Z</time>
</trkpt>
<trkpt lat="37.57421" lon="-1.2036471">
<ele>55</ele>
<time>2014-06-07T09:17:18Z</time>
</trkpt>
<trkpt lat="37.574203" lon="-1.2035751">
<ele>55</ele>
<time>2014-06-07T09:17:20Z</time>
</trkpt>
<trkpt lat="37.57419" lon="-1.2035145">
<ele>55</ele>
<time>2014-06-07T09:17:22Z</time>
</trkpt>
<trkpt lat="37.574177" lon="-1.2034385">
<ele>55</ele>
<time>2014-06-07T09:17:24Z</time>
</trkpt>
<trkpt lat="37.574165" lon="-1.2033721">
<ele>54</ele>
<time>2014-06-07T09:17:26Z</time>
</trkpt>
<trkpt lat="37.574158" lon="-1.2033099">
<ele>54</ele>
<time>2014-06-07T09:17:28Z</time>
</trkpt>
<trkpt lat="37.57415" lon="-1.2032485">
<ele>54</ele>
<time>2014-06-07T09:17:30Z</time>
</trkpt>
<trkpt lat="37.574135" lon="-1.2031966">
<ele>54</ele>
<time>2014-06-07T09:17:32Z</time>
</trkpt>
<trkpt lat="37.57412" lon="-1.2031298">
<ele>54</ele>
<time>2014-06-07T09:17:34Z</time>
</trkpt>
<trkpt lat="37.574104" lon="-1.2030782">
<ele>55</ele>
<time>2014-06-07T09:17:36Z</time>
</trkpt>
<trkpt lat="37.574093" lon="-1.2030139">
<ele>55</ele>
<time>2014-06-07T09:17:38Z</time>
</trkpt>
<trkpt lat="37.57408" lon="-1.2029425">
<ele>55</ele>
<time>2014-06-07T09:17:40Z</time>
</trkpt>
<trkpt lat="37.57407" lon="-1.2028849">
<ele>55</ele>
<time>2014-06-07T09:17:42Z</time>
</trkpt>
<trkpt lat="37.57406" lon="-1.202821">
<ele>55</ele>
<time>2014-06-07T09:17:44Z</time>
</trkpt>
<trkpt lat="37.574043" lon="-1.2027506">
<ele>55</ele>
<time>2014-06-07T09:17:46Z</time>
</trkpt>
<trkpt lat="37.574028" lon="-1.2026758">
<ele>55</ele>
<time>2014-06-07T09:17:48Z</time>
</trkpt>
<trkpt lat="37.574013" lon="-1.2026101">
<ele>55</ele>
<time>2014-06-07T09:17:50Z</time>
</trkpt>
<trkpt lat="37.574" lon="-1.2025456">
<ele>55</ele>
<time>2014-06-07T09:17:52Z</time>
</trkpt>
<trkpt lat="37.573982" lon="-1.2024757">
<ele>55</ele>
<time>2014-06-07T09:17:54Z</time>
</trkpt>
<trkpt lat="37.573967" lon="-1.2024175">
<ele>55</ele>
<time>2014-06-07T09:17:56Z</time>
</trkpt>
<trkpt lat="37.573948" lon="-1.2023644">
<ele>56</ele>
<time>2014-06-07T09:17:58Z</time>
</trkpt>
<trkpt lat="37.57393" lon="-1.202298">
<ele>56</ele>
<time>2014-06-07T09:18:00Z</time>
</trkpt>
<trkpt lat="37.57392" lon="-1.2022204">
<ele>56</ele>
<time>2014-06-07T09:18:02Z</time>
</trkpt>
<trkpt lat="37.573914" lon="-1.2021586">
<ele>56</ele>
<time>2014-06-07T09:18:04Z</time>
</trkpt>
<trkpt lat="37.573914" lon="-1.2021016">
<ele>56</ele>
<time>2014-06-07T09:18:06Z</time>
</trkpt>
<trkpt lat="37.573914" lon="-1.2020497">
<ele>56</ele>
<time>2014-06-07T09:18:08Z</time>
</trkpt>
<trkpt lat="37.573914" lon="-1.2019789">
<ele>56</ele>
<time>2014-06-07T09:18:10Z</time>
</trkpt>
<trkpt lat="37.573906" lon="-1.2019048">
<ele>56</ele>
<time>2014-06-07T09:18:12Z</time>
</trkpt>
<trkpt lat="37.5739" lon="-1.2018355">
<ele>56</ele>
<time>2014-06-07T09:18:14Z</time>
</trkpt>
<trkpt lat="37.573887" lon="-1.2017663">
<ele>57</ele>
<time>2014-06-07T09:18:16Z</time>
</trkpt>
<trkpt lat="37.573864" lon="-1.2016896">
<ele>57</ele>
<time>2014-06-07T09:18:18Z</time>
</trkpt>
<trkpt lat="37.573845" lon="-1.2016226">
<ele>57</ele>
<time>2014-06-07T09:18:20Z</time>
</trkpt>
<trkpt lat="37.573826" lon="-1.2015597">
<ele>57</ele>
<time>2014-06-07T09:18:22Z</time>
</trkpt>
<trkpt lat="37.573807" lon="-1.2014918">
<ele>57</ele>
<time>2014-06-07T09:18:24Z</time>
</trkpt>
<trkpt lat="37.573795" lon="-1.2014259">
<ele>57</ele>
<time>2014-06-07T09:18:26Z</time>
</trkpt>
<trkpt lat="37.573772" lon="-1.2013526">
<ele>57</ele>
<time>2014-06-07T09:18:28Z</time>
</trkpt>
<trkpt lat="37.573746" lon="-1.2012885">
<ele>57</ele>
<time>2014-06-07T09:18:30Z</time>
</trkpt>
<trkpt lat="37.573727" lon="-1.2012435">
<ele>57</ele>
<time>2014-06-07T09:18:32Z</time>
</trkpt>
<trkpt lat="37.573696" lon="-1.2011805">
<ele>57</ele>
<time>2014-06-07T09:18:34Z</time>
</trkpt>
<trkpt lat="37.573673" lon="-1.2011209">
<ele>57</ele>
<time>2014-06-07T09:18:36Z</time>
</trkpt>
<trkpt lat="37.573647" lon="-1.2010686">
<ele>57</ele>
<time>2014-06-07T09:18:38Z</time>
</trkpt>
<trkpt lat="37.57364" lon="-1.2010063">
<ele>57</ele>
<time>2014-06-07T09:18:40Z</time>
</trkpt>
<trkpt lat="37.57363" lon="-1.2009383">
<ele>57</ele>
<time>2014-06-07T09:18:42Z</time>
</trkpt>
<trkpt lat="37.573627" lon="-1.2008785">
<ele>57</ele>
<time>2014-06-07T09:18:44Z</time>
</trkpt>
<trkpt lat="37.57362" lon="-1.2008032">
<ele>57</ele>
<time>2014-06-07T09:18:46Z</time>
</trkpt>
<trkpt lat="37.57362" lon="-1.2007374">
<ele>57</ele>
<time>2014-06-07T09:18:48Z</time>
</trkpt>
<trkpt lat="37.573635" lon="-1.2006793">
<ele>57</ele>
<time>2014-06-07T09:18:50Z</time>
</trkpt>
<trkpt lat="37.573643" lon="-1.2006145">
<ele>57</ele>
<time>2014-06-07T09:18:52Z</time>
</trkpt>
<trkpt lat="37.573643" lon="-1.2005402">
<ele>57</ele>
<time>2014-06-07T09:18:54Z</time>
</trkpt>
<trkpt lat="37.573635" lon="-1.2004592">
<ele>57</ele>
<time>2014-06-07T09:18:56Z</time>
</trkpt>
<trkpt lat="37.573616" lon="-1.2003871">
<ele>57</ele>
<time>2014-06-07T09:18:58Z</time>
</trkpt>
<trkpt lat="37.573597" lon="-1.2003127">
<ele>57</ele>
<time>2014-06-07T09:19:00Z</time>
</trkpt>
<trkpt lat="37.573574" lon="-1.2002474">
<ele>57</ele>
<time>2014-06-07T09:19:02Z</time>
</trkpt>
<trkpt lat="37.573555" lon="-1.2001845">
<ele>57</ele>
<time>2014-06-07T09:19:04Z</time>
</trkpt>
<trkpt lat="37.57353" lon="-1.2001361">
<ele>57</ele>
<time>2014-06-07T09:19:06Z</time>
</trkpt>
<trkpt lat="37.57351" lon="-1.2000813">
<ele>57</ele>
<time>2014-06-07T09:19:08Z</time>
</trkpt>
<trkpt lat="37.57348" lon="-1.20002">
<ele>57</ele>
<time>2014-06-07T09:19:10Z</time>
</trkpt>
<trkpt lat="37.573452" lon="-1.1999676">
<ele>56</ele>
<time>2014-06-07T09:19:12Z</time>
</trkpt>
<trkpt lat="37.573425" lon="-1.199919">
<ele>56</ele>
<time>2014-06-07T09:19:14Z</time>
</trkpt>
<trkpt lat="37.573395" lon="-1.1998631">
<ele>56</ele>
<time>2014-06-07T09:19:16Z</time>
</trkpt>
<trkpt lat="37.573364" lon="-1.1998029">
<ele>56</ele>
<time>2014-06-07T09:19:18Z</time>
</trkpt>
<trkpt lat="37.57333" lon="-1.1997465">
<ele>56</ele>
<time>2014-06-07T09:19:20Z</time>
</trkpt>
<trkpt lat="37.573296" lon="-1.1996956">
<ele>57</ele>
<time>2014-06-07T09:19:22Z</time>
</trkpt>
<trkpt lat="37.573257" lon="-1.1996429">
<ele>57</ele>
<time>2014-06-07T09:19:24Z</time>
</trkpt>
<trkpt lat="37.57322" lon="-1.1995872">
<ele>57</ele>
<time>2014-06-07T09:19:26Z</time>
</trkpt>
<trkpt lat="37.573196" lon="-1.1995249">
<ele>57</ele>
<time>2014-06-07T09:19:28Z</time>
</trkpt>
<trkpt lat="37.573177" lon="-1.1994559">
<ele>57</ele>
<time>2014-06-07T09:19:30Z</time>
</trkpt>
<trkpt lat="37.573154" lon="-1.199391">
<ele>57</ele>
<time>2014-06-07T09:19:32Z</time>
</trkpt>
<trkpt lat="37.573124" lon="-1.1993387">
<ele>57</ele>
<time>2014-06-07T09:19:34Z</time>
</trkpt>
<trkpt lat="37.573097" lon="-1.1992848">
<ele>57</ele>
<time>2014-06-07T09:19:36Z</time>
</trkpt>
<trkpt lat="37.57307" lon="-1.1992154">
<ele>57</ele>
<time>2014-06-07T09:19:38Z</time>
</trkpt>
<trkpt lat="37.573044" lon="-1.1991359">
<ele>57</ele>
<time>2014-06-07T09:19:40Z</time>
</trkpt>
<trkpt lat="37.57304" lon="-1.1990646">
<ele>56</ele>
<time>2014-06-07T09:19:42Z</time>
</trkpt>
<trkpt lat="37.573025" lon="-1.1990048">
<ele>56</ele>
<time>2014-06-07T09:19:44Z</time>
</trkpt>
<trkpt lat="37.573006" lon="-1.1989353">
<ele>56</ele>
<time>2014-06-07T09:19:46Z</time>
</trkpt>
<trkpt lat="37.57298" lon="-1.1988677">
<ele>56</ele>
<time>2014-06-07T09:19:48Z</time>
</trkpt>
<trkpt lat="37.57295" lon="-1.1988028">
<ele>56</ele>
<time>2014-06-07T09:19:50Z</time>
</trkpt>
<trkpt lat="37.572918" lon="-1.1987338">
<ele>56</ele>
<time>2014-06-07T09:19:52Z</time>
</trkpt>
<trkpt lat="37.572895" lon="-1.1986698">
<ele>56</ele>
<time>2014-06-07T09:19:54Z</time>
</trkpt>
<trkpt lat="37.572872" lon="-1.1986169">
<ele>56</ele>
<time>2014-06-07T09:19:56Z</time>
</trkpt>
<trkpt lat="37.572845" lon="-1.1985822">
<ele>56</ele>
<time>2014-06-07T09:19:58Z</time>
</trkpt>
<trkpt lat="37.572807" lon="-1.1985264">
<ele>56</ele>
<time>2014-06-07T09:20:00Z</time>
</trkpt>
<trkpt lat="37.572777" lon="-1.1984677">
<ele>56</ele>
<time>2014-06-07T09:20:02Z</time>
</trkpt>
<trkpt lat="37.572742" lon="-1.1984082">
<ele>56</ele>
<time>2014-06-07T09:20:04Z</time>
</trkpt>
<trkpt lat="37.572697" lon="-1.1983641">
<ele>56</ele>
<time>2014-06-07T09:20:06Z</time>
</trkpt>
<trkpt lat="37.57266" lon="-1.1983285">
<ele>56</ele>
<time>2014-06-07T09:20:08Z</time>
</trkpt>
<trkpt lat="37.572617" lon="-1.1982726">
<ele>56</ele>
<time>2014-06-07T09:20:10Z</time>
</trkpt>
<trkpt lat="37.57259" lon="-1.198229">
<ele>57</ele>
<time>2014-06-07T09:20:12Z</time>
</trkpt>
<trkpt lat="37.572556" lon="-1.1981704">
<ele>57</ele>
<time>2014-06-07T09:20:14Z</time>
</trkpt>
<trkpt lat="37.57252" lon="-1.1981081">
<ele>57</ele>
<time>2014-06-07T09:20:16Z</time>
</trkpt>
<trkpt lat="37.572483" lon="-1.1980503">
<ele>57</ele>
<time>2014-06-07T09:20:18Z</time>
</trkpt>
<trkpt lat="37.572453" lon="-1.1980009">
<ele>57</ele>
<time>2014-06-07T09:20:20Z</time>
</trkpt>
<trkpt lat="37.57241" lon="-1.1979473">
<ele>57</ele>
<time>2014-06-07T09:20:22Z</time>
</trkpt>
<trkpt lat="37.57238" lon="-1.1979023">
<ele>56</ele>
<time>2014-06-07T09:20:24Z</time>
</trkpt>
<trkpt lat="37.572357" lon="-1.1978505">
<ele>56</ele>
<time>2014-06-07T09:20:26Z</time>
</trkpt>
<trkpt lat="37.572327" lon="-1.1978027">
<ele>56</ele>
<time>2014-06-07T09:20:28Z</time>
</trkpt>
<trkpt lat="37.57229" lon="-1.1977422">
<ele>56</ele>
<time>2014-06-07T09:20:30Z</time>
</trkpt>
<trkpt lat="37.572258" lon="-1.1976897">
<ele>56</ele>
<time>2014-06-07T09:20:32Z</time>
</trkpt>
<trkpt lat="37.57223" lon="-1.1976368">
<ele>56</ele>
<time>2014-06-07T09:20:34Z</time>
</trkpt>
<trkpt lat="37.572197" lon="-1.1975844">
<ele>56</ele>
<time>2014-06-07T09:20:36Z</time>
</trkpt>
<trkpt lat="37.572166" lon="-1.1975305">
<ele>56</ele>
<time>2014-06-07T09:20:38Z</time>
</trkpt>
<trkpt lat="37.572144" lon="-1.1974885">
<ele>56</ele>
<time>2014-06-07T09:20:40Z</time>
</trkpt>
<trkpt lat="37.572113" lon="-1.1974375">
<ele>56</ele>
<time>2014-06-07T09:20:42Z</time>
</trkpt>
<trkpt lat="37.572075" lon="-1.1973937">
<ele>56</ele>
<time>2014-06-07T09:20:44Z</time>
</trkpt>
<trkpt lat="37.57204" lon="-1.1973485">
<ele>56</ele>
<time>2014-06-07T09:20:46Z</time>
</trkpt>
<trkpt lat="37.572006" lon="-1.1972948">
<ele>56</ele>
<time>2014-06-07T09:20:48Z</time>
</trkpt>
<trkpt lat="37.571983" lon="-1.1972396">
<ele>56</ele>
<time>2014-06-07T09:20:50Z</time>
</trkpt>
<trkpt lat="37.571964" lon="-1.1971842">
<ele>56</ele>
<time>2014-06-07T09:20:52Z</time>
</trkpt>
<trkpt lat="37.57194" lon="-1.1971325">
<ele>56</ele>
<time>2014-06-07T09:20:54Z</time>
</trkpt>
<trkpt lat="37.571915" lon="-1.1970713">
<ele>56</ele>
<time>2014-06-07T09:20:56Z</time>
</trkpt>
<trkpt lat="37.571888" lon="-1.1970195">
<ele>56</ele>
<time>2014-06-07T09:20:58Z</time>
</trkpt>
<trkpt lat="37.571857" lon="-1.1969672">
<ele>56</ele>
<time>2014-06-07T09:21:00Z</time>
</trkpt>
<trkpt lat="37.57183" lon="-1.1969163">
<ele>56</ele>
<time>2014-06-07T09:21:02Z</time>
</trkpt>
<trkpt lat="37.571815" lon="-1.1968603">
<ele>57</ele>
<time>2014-06-07T09:21:04Z</time>
</trkpt>
<trkpt lat="37.571793" lon="-1.1967918">
<ele>57</ele>
<time>2014-06-07T09:21:06Z</time>
</trkpt>
<trkpt lat="37.57178" lon="-1.1967326">
<ele>57</ele>
<time>2014-06-07T09:21:08Z</time>
</trkpt>
<trkpt lat="37.57177" lon="-1.1966647">
<ele>57</ele>
<time>2014-06-07T09:21:10Z</time>
</trkpt>
<trkpt lat="37.57176" lon="-1.1966009">
<ele>57</ele>
<time>2014-06-07T09:21:12Z</time>
</trkpt>
<trkpt lat="37.571743" lon="-1.1965414">
<ele>57</ele>
<time>2014-06-07T09:21:14Z</time>
</trkpt>
<trkpt lat="37.57173" lon="-1.1964873">
<ele>57</ele>
<time>2014-06-07T09:21:16Z</time>
</trkpt>
<trkpt lat="37.571716" lon="-1.1964315">
<ele>57</ele>
<time>2014-06-07T09:21:18Z</time>
</trkpt>
<trkpt lat="37.571697" lon="-1.1963658">
<ele>56</ele>
<time>2014-06-07T09:21:20Z</time>
</trkpt>
<trkpt lat="37.571686" lon="-1.1963025">
<ele>56</ele>
<time>2014-06-07T09:21:22Z</time>
</trkpt>
<trkpt lat="37.57167" lon="-1.1962383">
<ele>56</ele>
<time>2014-06-07T09:21:24Z</time>
</trkpt>
<trkpt lat="37.57166" lon="-1.196176">
<ele>56</ele>
<time>2014-06-07T09:21:26Z</time>
</trkpt>
<trkpt lat="37.57164" lon="-1.19611">
<ele>56</ele>
<time>2014-06-07T09:21:28Z</time>
</trkpt>
<trkpt lat="37.571625" lon="-1.1960611">
<ele>56</ele>
<time>2014-06-07T09:21:30Z</time>
</trkpt>
<trkpt lat="37.571617" lon="-1.1960186">
<ele>56</ele>
<time>2014-06-07T09:21:32Z</time>
</trkpt>
<trkpt lat="37.571606" lon="-1.1959676">
<ele>56</ele>
<time>2014-06-07T09:21:34Z</time>
</trkpt>
<trkpt lat="37.5716" lon="-1.1959105">
<ele>56</ele>
<time>2014-06-07T09:21:36Z</time>
</trkpt>
<trkpt lat="37.5716" lon="-1.1958576">
<ele>56</ele>
<time>2014-06-07T09:21:38Z</time>
</trkpt>
<trkpt lat="37.5716" lon="-1.1958053">
<ele>55</ele>
<time>2014-06-07T09:21:40Z</time>
</trkpt>
<trkpt lat="37.571598" lon="-1.1957481">
<ele>55</ele>
<time>2014-06-07T09:21:42Z</time>
</trkpt>
<trkpt lat="37.57159" lon="-1.1956931">
<ele>55</ele>
<time>2014-06-07T09:21:44Z</time>
</trkpt>
<trkpt lat="37.57158" lon="-1.1956373">
<ele>55</ele>
<time>2014-06-07T09:21:46Z</time>
</trkpt>
<trkpt lat="37.57156" lon="-1.1955837">
<ele>55</ele>
<time>2014-06-07T09:21:48Z</time>
</trkpt>
<trkpt lat="37.571552" lon="-1.1955299">
<ele>55</ele>
<time>2014-06-07T09:21:50Z</time>
</trkpt>
<trkpt lat="37.57154" lon="-1.1954659">
<ele>55</ele>
<time>2014-06-07T09:21:52Z</time>
</trkpt>
<trkpt lat="37.571533" lon="-1.1954093">
<ele>55</ele>
<time>2014-06-07T09:21:54Z</time>
</trkpt>
<trkpt lat="37.571526" lon="-1.1953593">
<ele>55</ele>
<time>2014-06-07T09:21:56Z</time>
</trkpt>
<trkpt lat="37.57152" lon="-1.1953053">
<ele>55</ele>
<time>2014-06-07T09:21:58Z</time>
</trkpt>
<trkpt lat="37.571514" lon="-1.1952385">
<ele>55</ele>
<time>2014-06-07T09:22:00Z</time>
</trkpt>
<trkpt lat="37.5715" lon="-1.1951667">
<ele>55</ele>
<time>2014-06-07T09:22:02Z</time>
</trkpt>
<trkpt lat="37.57149" lon="-1.1951015">
<ele>55</ele>
<time>2014-06-07T09:22:04Z</time>
</trkpt>
<trkpt lat="37.57149" lon="-1.1950318">
<ele>55</ele>
<time>2014-06-07T09:22:06Z</time>
</trkpt>
<trkpt lat="37.57149" lon="-1.1949774">
<ele>55</ele>
<time>2014-06-07T09:22:08Z</time>
</trkpt>
<trkpt lat="37.57149" lon="-1.1949134">
<ele>55</ele>
<time>2014-06-07T09:22:10Z</time>
</trkpt>
<trkpt lat="37.5715" lon="-1.1948565">
<ele>55</ele>
<time>2014-06-07T09:22:12Z</time>
</trkpt>
<trkpt lat="37.571507" lon="-1.194791">
<ele>55</ele>
<time>2014-06-07T09:22:14Z</time>
</trkpt>
<trkpt lat="37.571514" lon="-1.1947153">
<ele>55</ele>
<time>2014-06-07T09:22:16Z</time>
</trkpt>
<trkpt lat="37.57152" lon="-1.1946492">
<ele>55</ele>
<time>2014-06-07T09:22:18Z</time>
</trkpt>
<trkpt lat="37.571526" lon="-1.1946025">
<ele>55</ele>
<time>2014-06-07T09:22:20Z</time>
</trkpt>
<trkpt lat="37.57152" lon="-1.1945385">
<ele>55</ele>
<time>2014-06-07T09:22:22Z</time>
</trkpt>
<trkpt lat="37.57149" lon="-1.1944938">
<ele>55</ele>
<time>2014-06-07T09:22:24Z</time>
</trkpt>
<trkpt lat="37.571457" lon="-1.1944362">
<ele>55</ele>
<time>2014-06-07T09:22:26Z</time>
</trkpt>
<trkpt lat="37.571423" lon="-1.1943793">
<ele>55</ele>
<time>2014-06-07T09:22:28Z</time>
</trkpt>
<trkpt lat="37.571392" lon="-1.1943402">
<ele>55</ele>
<time>2014-06-07T09:22:30Z</time>
</trkpt>
<trkpt lat="37.571354" lon="-1.1943043">
<ele>56</ele>
<time>2014-06-07T09:22:32Z</time>
</trkpt>
<trkpt lat="37.571323" lon="-1.1942708">
<ele>56</ele>
<time>2014-06-07T09:22:34Z</time>
</trkpt>
<trkpt lat="37.571293" lon="-1.194229">
<ele>56</ele>
<time>2014-06-07T09:22:36Z</time>
</trkpt>
<trkpt lat="37.57126" lon="-1.1941824">
<ele>56</ele>
<time>2014-06-07T09:22:38Z</time>
</trkpt>
<trkpt lat="37.571224" lon="-1.1941298">
<ele>56</ele>
<time>2014-06-07T09:22:40Z</time>
</trkpt>
<trkpt lat="37.57119" lon="-1.1940646">
<ele>56</ele>
<time>2014-06-07T09:22:42Z</time>
</trkpt>
<trkpt lat="37.571167" lon="-1.1940154">
<ele>56</ele>
<time>2014-06-07T09:22:44Z</time>
</trkpt>
<trkpt lat="37.571148" lon="-1.1939651">
<ele>56</ele>
<time>2014-06-07T09:22:46Z</time>
</trkpt>
<trkpt lat="37.57113" lon="-1.1939032">
<ele>56</ele>
<time>2014-06-07T09:22:48Z</time>
</trkpt>
<trkpt lat="37.571106" lon="-1.1938344">
<ele>56</ele>
<time>2014-06-07T09:22:50Z</time>
</trkpt>
<trkpt lat="37.571075" lon="-1.1937814">
<ele>56</ele>
<time>2014-06-07T09:22:52Z</time>
</trkpt>
<trkpt lat="37.571045" lon="-1.1937275">
<ele>56</ele>
<time>2014-06-07T09:22:54Z</time>
</trkpt>
<trkpt lat="37.57102" lon="-1.193675">
<ele>56</ele>
<time>2014-06-07T09:22:56Z</time>
</trkpt>
<trkpt lat="37.570988" lon="-1.1936222">
<ele>56</ele>
<time>2014-06-07T09:22:58Z</time>
</trkpt>
<trkpt lat="37.57096" lon="-1.1935711">
<ele>56</ele>
<time>2014-06-07T09:23:00Z</time>
</trkpt>
<trkpt lat="37.57093" lon="-1.1935205">
<ele>57</ele>
<time>2014-06-07T09:23:02Z</time>
</trkpt>
<trkpt lat="37.5709" lon="-1.1934552">
<ele>57</ele>
<time>2014-06-07T09:23:04Z</time>
</trkpt>
<trkpt lat="37.570877" lon="-1.1933972">
<ele>57</ele>
<time>2014-06-07T09:23:06Z</time>
</trkpt>
<trkpt lat="37.57086" lon="-1.1933416">
<ele>57</ele>
<time>2014-06-07T09:23:08Z</time>
</trkpt>
<trkpt lat="37.570835" lon="-1.1932516">
<ele>58</ele>
<time>2014-06-07T09:23:10Z</time>
</trkpt>
<trkpt lat="37.570816" lon="-1.1931936">
<ele>58</ele>
<time>2014-06-07T09:23:12Z</time>
</trkpt>
<trkpt lat="37.570805" lon="-1.1931329">
<ele>58</ele>
<time>2014-06-07T09:23:14Z</time>
</trkpt>
<trkpt lat="37.57079" lon="-1.193065">
<ele>58</ele>
<time>2014-06-07T09:23:16Z</time>
</trkpt>
<trkpt lat="37.570774" lon="-1.1930015">
<ele>58</ele>
<time>2014-06-07T09:23:18Z</time>
</trkpt>
<trkpt lat="37.57076" lon="-1.1929324">
<ele>58</ele>
<time>2014-06-07T09:23:20Z</time>
</trkpt>
<trkpt lat="37.570747" lon="-1.1928664">
<ele>58</ele>
<time>2014-06-07T09:23:22Z</time>
</trkpt>
<trkpt lat="37.570736" lon="-1.1928073">
<ele>58</ele>
<time>2014-06-07T09:23:24Z</time>
</trkpt>
<trkpt lat="37.570717" lon="-1.1927305">
<ele>58</ele>
<time>2014-06-07T09:23:26Z</time>
</trkpt>
<trkpt lat="37.570705" lon="-1.1926696">
<ele>58</ele>
<time>2014-06-07T09:23:28Z</time>
</trkpt>
<trkpt lat="37.570698" lon="-1.1926112">
<ele>58</ele>
<time>2014-06-07T09:23:30Z</time>
</trkpt>
<trkpt lat="37.57069" lon="-1.1925454">
<ele>58</ele>
<time>2014-06-07T09:23:32Z</time>
</trkpt>
<trkpt lat="37.57068" lon="-1.192465">
<ele>58</ele>
<time>2014-06-07T09:23:34Z</time>
</trkpt>
<trkpt lat="37.570675" lon="-1.1924019">
<ele>58</ele>
<time>2014-06-07T09:23:36Z</time>
</trkpt>
<trkpt lat="37.570652" lon="-1.1923438">
<ele>58</ele>
<time>2014-06-07T09:23:38Z</time>
</trkpt>
<trkpt lat="37.57063" lon="-1.1922677">
<ele>58</ele>
<time>2014-06-07T09:23:40Z</time>
</trkpt>
<trkpt lat="37.570606" lon="-1.1922092">
<ele>58</ele>
<time>2014-06-07T09:23:42Z</time>
</trkpt>
<trkpt lat="37.570583" lon="-1.1921463">
<ele>58</ele>
<time>2014-06-07T09:23:44Z</time>
</trkpt>
<trkpt lat="37.57056" lon="-1.1920879">
<ele>58</ele>
<time>2014-06-07T09:23:46Z</time>
</trkpt>
<trkpt lat="37.570534" lon="-1.1920261">
<ele>58</ele>
<time>2014-06-07T09:23:48Z</time>
</trkpt>
<trkpt lat="37.570503" lon="-1.1919738">
<ele>58</ele>
<time>2014-06-07T09:23:50Z</time>
</trkpt>
<trkpt lat="37.570465" lon="-1.1919233">
<ele>58</ele>
<time>2014-06-07T09:23:52Z</time>
</trkpt>
<trkpt lat="37.570423" lon="-1.1918768">
<ele>58</ele>
<time>2014-06-07T09:23:54Z</time>
</trkpt>
<trkpt lat="37.57039" lon="-1.1918299">
<ele>58</ele>
<time>2014-06-07T09:23:56Z</time>
</trkpt>
<trkpt lat="37.570354" lon="-1.1917886">
<ele>59</ele>
<time>2014-06-07T09:23:59Z</time>
</trkpt>
<trkpt lat="37.570316" lon="-1.1917489">
<ele>59</ele>
<time>2014-06-07T09:24:01Z</time>
</trkpt>
<trkpt lat="37.57028" lon="-1.1917093">
<ele>59</ele>
<time>2014-06-07T09:24:03Z</time>
</trkpt>
<trkpt lat="37.570232" lon="-1.1916606">
<ele>59</ele>
<time>2014-06-07T09:24:05Z</time>
</trkpt>
<trkpt lat="37.570198" lon="-1.1916157">
<ele>59</ele>
<time>2014-06-07T09:24:07Z</time>
</trkpt>
<trkpt lat="37.570152" lon="-1.1915671">
<ele>59</ele>
<time>2014-06-07T09:24:09Z</time>
</trkpt>
<trkpt lat="37.570114" lon="-1.1915208">
<ele>59</ele>
<time>2014-06-07T09:24:11Z</time>
</trkpt>
<trkpt lat="37.57007" lon="-1.1914748">
<ele>60</ele>
<time>2014-06-07T09:24:13Z</time>
</trkpt>
<trkpt lat="37.570023" lon="-1.1914097">
<ele>60</ele>
<time>2014-06-07T09:24:15Z</time>
</trkpt>
<trkpt lat="37.569992" lon="-1.1913592">
<ele>60</ele>
<time>2014-06-07T09:24:17Z</time>
</trkpt>
<trkpt lat="37.56996" lon="-1.1913116">
<ele>60</ele>
<time>2014-06-07T09:24:19Z</time>
</trkpt>
<trkpt lat="37.56992" lon="-1.1912559">
<ele>60</ele>
<time>2014-06-07T09:24:21Z</time>
</trkpt>
<trkpt lat="37.56988" lon="-1.1911974">
<ele>60</ele>
<time>2014-06-07T09:24:23Z</time>
</trkpt>
<trkpt lat="37.569843" lon="-1.191146">
<ele>60</ele>
<time>2014-06-07T09:24:25Z</time>
</trkpt>
<trkpt lat="37.56981" lon="-1.1910931">
<ele>60</ele>
<time>2014-06-07T09:24:27Z</time>
</trkpt>
<trkpt lat="37.569767" lon="-1.1910297">
<ele>59</ele>
<time>2014-06-07T09:24:29Z</time>
</trkpt>
<trkpt lat="37.569733" lon="-1.1909679">
<ele>59</ele>
<time>2014-06-07T09:24:31Z</time>
</trkpt>
<trkpt lat="37.5697" lon="-1.1908916">
<ele>59</ele>
<time>2014-06-07T09:24:33Z</time>
</trkpt>
<trkpt lat="37.569668" lon="-1.1908294">
<ele>59</ele>
<time>2014-06-07T09:24:35Z</time>
</trkpt>
<trkpt lat="37.569637" lon="-1.1907834">
<ele>59</ele>
<time>2014-06-07T09:24:37Z</time>
</trkpt>
<trkpt lat="37.5696" lon="-1.1907282">
<ele>59</ele>
<time>2014-06-07T09:24:39Z</time>
</trkpt>
<trkpt lat="37.56956" lon="-1.1906741">
<ele>59</ele>
<time>2014-06-07T09:24:41Z</time>
</trkpt>
<trkpt lat="37.569523" lon="-1.1906114">
<ele>59</ele>
<time>2014-06-07T09:24:43Z</time>
</trkpt>
<trkpt lat="37.569492" lon="-1.1905593">
<ele>59</ele>
<time>2014-06-07T09:24:45Z</time>
</trkpt>
<trkpt lat="37.569458" lon="-1.1904982">
<ele>59</ele>
<time>2014-06-07T09:24:47Z</time>
</trkpt>
<trkpt lat="37.569424" lon="-1.1904426">
<ele>59</ele>
<time>2014-06-07T09:24:49Z</time>
</trkpt>
<trkpt lat="37.569386" lon="-1.1903844">
<ele>59</ele>
<time>2014-06-07T09:24:51Z</time>
</trkpt>
<trkpt lat="37.569355" lon="-1.1903406">
<ele>59</ele>
<time>2014-06-07T09:24:53Z</time>
</trkpt>
<trkpt lat="37.56931" lon="-1.190275">
<ele>59</ele>
<time>2014-06-07T09:24:55Z</time>
</trkpt>
<trkpt lat="37.56928" lon="-1.1902328">
<ele>59</ele>
<time>2014-06-07T09:24:57Z</time>
</trkpt>
<trkpt lat="37.56924" lon="-1.1901814">
<ele>59</ele>
<time>2014-06-07T09:24:59Z</time>
</trkpt>
<trkpt lat="37.56921" lon="-1.190132">
<ele>59</ele>
<time>2014-06-07T09:25:01Z</time>
</trkpt>
<trkpt lat="37.569176" lon="-1.1900709">
<ele>59</ele>
<time>2014-06-07T09:25:03Z</time>
</trkpt>
<trkpt lat="37.56914" lon="-1.1900151">
<ele>59</ele>
<time>2014-06-07T09:25:05Z</time>
</trkpt>
<trkpt lat="37.569103" lon="-1.1899564">
<ele>59</ele>
<time>2014-06-07T09:25:07Z</time>
</trkpt>
<trkpt lat="37.569073" lon="-1.1899055">
<ele>59</ele>
<time>2014-06-07T09:25:09Z</time>
</trkpt>
<trkpt lat="37.56904" lon="-1.1898583">
<ele>59</ele>
<time>2014-06-07T09:25:11Z</time>
</trkpt>
<trkpt lat="37.568993" lon="-1.1898111">
<ele>59</ele>
<time>2014-06-07T09:25:13Z</time>
</trkpt>
<trkpt lat="37.568954" lon="-1.1897699">
<ele>59</ele>
<time>2014-06-07T09:25:15Z</time>
</trkpt>
<trkpt lat="37.56892" lon="-1.1897213">
<ele>59</ele>
<time>2014-06-07T09:25:17Z</time>
</trkpt>
<trkpt lat="37.568882" lon="-1.1896673">
<ele>59</ele>
<time>2014-06-07T09:25:19Z</time>
</trkpt>
<trkpt lat="37.56885" lon="-1.1896229">
<ele>58</ele>
<time>2014-06-07T09:25:21Z</time>
</trkpt>
<trkpt lat="37.5688" lon="-1.1895676">
<ele>58</ele>
<time>2014-06-07T09:25:23Z</time>
</trkpt>
<trkpt lat="37.568768" lon="-1.1895152">
<ele>58</ele>
<time>2014-06-07T09:25:25Z</time>
</trkpt>
<trkpt lat="37.5687" lon="-1.1894157">
<ele>58</ele>
<time>2014-06-07T09:25:28Z</time>
</trkpt>
<trkpt lat="37.568665" lon="-1.1893553">
<ele>58</ele>
<time>2014-06-07T09:25:30Z</time>
</trkpt>
<trkpt lat="37.568626" lon="-1.1893059">
<ele>58</ele>
<time>2014-06-07T09:25:32Z</time>
</trkpt>
<trkpt lat="37.568596" lon="-1.18925">
<ele>58</ele>
<time>2014-06-07T09:25:34Z</time>
</trkpt>
<trkpt lat="37.568565" lon="-1.1891913">
<ele>58</ele>
<time>2014-06-07T09:25:36Z</time>
</trkpt>
<trkpt lat="37.56854" lon="-1.1891184">
<ele>58</ele>
<time>2014-06-07T09:25:38Z</time>
</trkpt>
<trkpt lat="37.568516" lon="-1.1890521">
<ele>58</ele>
<time>2014-06-07T09:25:40Z</time>
</trkpt>
<trkpt lat="37.56849" lon="-1.1889827">
<ele>57</ele>
<time>2014-06-07T09:25:42Z</time>
</trkpt>
<trkpt lat="37.568485" lon="-1.1889448">
<ele>57</ele>
<time>2014-06-07T09:25:44Z</time>
</trkpt>
<trkpt lat="37.568485" lon="-1.1888716">
<ele>57</ele>
<time>2014-06-07T09:25:46Z</time>
</trkpt>
<trkpt lat="37.56848" lon="-1.1888107">
<ele>57</ele>
<time>2014-06-07T09:25:48Z</time>
</trkpt>
<trkpt lat="37.568478" lon="-1.1887434">
<ele>57</ele>
<time>2014-06-07T09:25:50Z</time>
</trkpt>
<trkpt lat="37.568478" lon="-1.1886643">
<ele>57</ele>
<time>2014-06-07T09:25:52Z</time>
</trkpt>
<trkpt lat="37.56849" lon="-1.1885985">
<ele>57</ele>
<time>2014-06-07T09:25:54Z</time>
</trkpt>
<trkpt lat="37.568497" lon="-1.188537">
<ele>57</ele>
<time>2014-06-07T09:25:56Z</time>
</trkpt>
<trkpt lat="37.568504" lon="-1.1884724">
<ele>57</ele>
<time>2014-06-07T09:25:58Z</time>
</trkpt>
<trkpt lat="37.5685" lon="-1.1883984">
<ele>57</ele>
<time>2014-06-07T09:26:00Z</time>
</trkpt>
<trkpt lat="37.568504" lon="-1.1883236">
<ele>57</ele>
<time>2014-06-07T09:26:02Z</time>
</trkpt>
<trkpt lat="37.568504" lon="-1.1882493">
<ele>57</ele>
<time>2014-06-07T09:26:04Z</time>
</trkpt>
<trkpt lat="37.56851" lon="-1.1881844">
<ele>57</ele>
<time>2014-06-07T09:26:06Z</time>
</trkpt>
<trkpt lat="37.568512" lon="-1.1881187">
<ele>56</ele>
<time>2014-06-07T09:26:08Z</time>
</trkpt>
<trkpt lat="37.568512" lon="-1.1880311">
<ele>56</ele>
<time>2014-06-07T09:26:10Z</time>
</trkpt>
<trkpt lat="37.568516" lon="-1.1879634">
<ele>56</ele>
<time>2014-06-07T09:26:12Z</time>
</trkpt>
<trkpt lat="37.568523" lon="-1.1879148">
<ele>56</ele>
<time>2014-06-07T09:26:14Z</time>
</trkpt>
<trkpt lat="37.568527" lon="-1.1878399">
<ele>56</ele>
<time>2014-06-07T09:26:16Z</time>
</trkpt>
<trkpt lat="37.568527" lon="-1.1877786">
<ele>56</ele>
<time>2014-06-07T09:26:18Z</time>
</trkpt>
<trkpt lat="37.568527" lon="-1.1877067">
<ele>56</ele>
<time>2014-06-07T09:26:20Z</time>
</trkpt>
<trkpt lat="37.568523" lon="-1.1876385">
<ele>56</ele>
<time>2014-06-07T09:26:22Z</time>
</trkpt>
<trkpt lat="37.56852" lon="-1.1875727">
<ele>56</ele>
<time>2014-06-07T09:26:24Z</time>
</trkpt>
<trkpt lat="37.56852" lon="-1.1875136">
<ele>56</ele>
<time>2014-06-07T09:26:26Z</time>
</trkpt>
<trkpt lat="37.568527" lon="-1.1874512">
<ele>56</ele>
<time>2014-06-07T09:26:28Z</time>
</trkpt>
<trkpt lat="37.568527" lon="-1.187401">
<ele>56</ele>
<time>2014-06-07T09:26:30Z</time>
</trkpt>
<trkpt lat="37.56853" lon="-1.1873438">
<ele>56</ele>
<time>2014-06-07T09:26:32Z</time>
</trkpt>
<trkpt lat="37.56853" lon="-1.1872665">
<ele>56</ele>
<time>2014-06-07T09:26:34Z</time>
</trkpt>
<trkpt lat="37.568535" lon="-1.1871897">
<ele>56</ele>
<time>2014-06-07T09:26:36Z</time>
</trkpt>
<trkpt lat="37.56853" lon="-1.1871097">
<ele>55</ele>
<time>2014-06-07T09:26:38Z</time>
</trkpt>
<trkpt lat="37.568527" lon="-1.1870521">
<ele>56</ele>
<time>2014-06-07T09:26:40Z</time>
</trkpt>
<trkpt lat="37.56852" lon="-1.1869822">
<ele>56</ele>
<time>2014-06-07T09:26:42Z</time>
</trkpt>
<trkpt lat="37.56851" lon="-1.1869133">
<ele>56</ele>
<time>2014-06-07T09:26:44Z</time>
</trkpt>
<trkpt lat="37.568504" lon="-1.1868505">
<ele>56</ele>
<time>2014-06-07T09:26:46Z</time>
</trkpt>
<trkpt lat="37.56849" lon="-1.1867791">
<ele>56</ele>
<time>2014-06-07T09:26:48Z</time>
</trkpt>
<trkpt lat="37.568478" lon="-1.1867087">
<ele>56</ele>
<time>2014-06-07T09:26:50Z</time>
</trkpt>
<trkpt lat="37.56847" lon="-1.1866456">
<ele>56</ele>
<time>2014-06-07T09:26:52Z</time>
</trkpt>
<trkpt lat="37.568447" lon="-1.1865643">
<ele>56</ele>
<time>2014-06-07T09:26:54Z</time>
</trkpt>
<trkpt lat="37.568424" lon="-1.186494">
<ele>56</ele>
<time>2014-06-07T09:26:56Z</time>
</trkpt>
<trkpt lat="37.56841" lon="-1.1864492">
<ele>55</ele>
<time>2014-06-07T09:26:58Z</time>
</trkpt>
<trkpt lat="37.56839" lon="-1.1863842">
<ele>55</ele>
<time>2014-06-07T09:27:00Z</time>
</trkpt>
<trkpt lat="37.56837" lon="-1.1863176">
<ele>55</ele>
<time>2014-06-07T09:27:02Z</time>
</trkpt>
<trkpt lat="37.56834" lon="-1.1862487">
<ele>55</ele>
<time>2014-06-07T09:27:04Z</time>
</trkpt>
<trkpt lat="37.568317" lon="-1.1861858">
<ele>55</ele>
<time>2014-06-07T09:27:06Z</time>
</trkpt>
<trkpt lat="37.56829" lon="-1.1861122">
<ele>55</ele>
<time>2014-06-07T09:27:08Z</time>
</trkpt>
<trkpt lat="37.568268" lon="-1.186059">
<ele>55</ele>
<time>2014-06-07T09:27:10Z</time>
</trkpt>
<trkpt lat="37.568253" lon="-1.1859987">
<ele>55</ele>
<time>2014-06-07T09:27:12Z</time>
</trkpt>
<trkpt lat="37.568237" lon="-1.1859382">
<ele>55</ele>
<time>2014-06-07T09:27:14Z</time>
</trkpt>
<trkpt lat="37.56822" lon="-1.1858674">
<ele>55</ele>
<time>2014-06-07T09:27:16Z</time>
</trkpt>
<trkpt lat="37.568203" lon="-1.185807">
<ele>54</ele>
<time>2014-06-07T09:27:18Z</time>
</trkpt>
<trkpt lat="37.568188" lon="-1.1857448">
<ele>54</ele>
<time>2014-06-07T09:27:20Z</time>
</trkpt>
<trkpt lat="37.568165" lon="-1.1856868">
<ele>54</ele>
<time>2014-06-07T09:27:22Z</time>
</trkpt>
<trkpt lat="37.56814" lon="-1.1856238">
<ele>54</ele>
<time>2014-06-07T09:27:24Z</time>
</trkpt>
<trkpt lat="37.56811" lon="-1.185548">
<ele>54</ele>
<time>2014-06-07T09:27:26Z</time>
</trkpt>
<trkpt lat="37.568085" lon="-1.1854725">
<ele>54</ele>
<time>2014-06-07T09:27:28Z</time>
</trkpt>
<trkpt lat="37.568066" lon="-1.1854165">
<ele>55</ele>
<time>2014-06-07T09:27:30Z</time>
</trkpt>
<trkpt lat="37.568047" lon="-1.1853684">
<ele>55</ele>
<time>2014-06-07T09:27:32Z</time>
</trkpt>
<trkpt lat="37.568016" lon="-1.185296">
<ele>55</ele>
<time>2014-06-07T09:27:34Z</time>
</trkpt>
<trkpt lat="37.56799" lon="-1.1852216">
<ele>55</ele>
<time>2014-06-07T09:27:36Z</time>
</trkpt>
<trkpt lat="37.567974" lon="-1.1851783">
<ele>55</ele>
<time>2014-06-07T09:27:38Z</time>
</trkpt>
<trkpt lat="37.567947" lon="-1.1851022">
<ele>55</ele>
<time>2014-06-07T09:27:40Z</time>
</trkpt>
<trkpt lat="37.567924" lon="-1.1850379">
<ele>55</ele>
<time>2014-06-07T09:27:42Z</time>
</trkpt>
<trkpt lat="37.567905" lon="-1.184985">
<ele>54</ele>
<time>2014-06-07T09:27:44Z</time>
</trkpt>
<trkpt lat="37.56789" lon="-1.1849296">
<ele>54</ele>
<time>2014-06-07T09:27:46Z</time>
</trkpt>
<trkpt lat="37.567867" lon="-1.1848637">
<ele>54</ele>
<time>2014-06-07T09:27:48Z</time>
</trkpt>
<trkpt lat="37.567837" lon="-1.1847998">
<ele>55</ele>
<time>2014-06-07T09:27:50Z</time>
</trkpt>
<trkpt lat="37.567806" lon="-1.1847398">
<ele>55</ele>
<time>2014-06-07T09:27:52Z</time>
</trkpt>
<trkpt lat="37.56778" lon="-1.1846789">
<ele>55</ele>
<time>2014-06-07T09:27:54Z</time>
</trkpt>
<trkpt lat="37.56775" lon="-1.1846187">
<ele>55</ele>
<time>2014-06-07T09:27:56Z</time>
</trkpt>
<trkpt lat="37.567726" lon="-1.1845671">
<ele>55</ele>
<time>2014-06-07T09:27:58Z</time>
</trkpt>
<trkpt lat="37.5677" lon="-1.1845187">
<ele>55</ele>
<time>2014-06-07T09:28:00Z</time>
</trkpt>
<trkpt lat="37.56767" lon="-1.1844563">
<ele>55</ele>
<time>2014-06-07T09:28:02Z</time>
</trkpt>
<trkpt lat="37.567646" lon="-1.1843941">
<ele>55</ele>
<time>2014-06-07T09:28:04Z</time>
</trkpt>
<trkpt lat="37.56761" lon="-1.1843356">
<ele>55</ele>
<time>2014-06-07T09:28:06Z</time>
</trkpt>
<trkpt lat="37.567577" lon="-1.1842766">
<ele>55</ele>
<time>2014-06-07T09:28:08Z</time>
</trkpt>
<trkpt lat="37.567543" lon="-1.1842148">
<ele>55</ele>
<time>2014-06-07T09:28:10Z</time>
</trkpt>
<trkpt lat="37.567516" lon="-1.1841595">
<ele>55</ele>
<time>2014-06-07T09:28:12Z</time>
</trkpt>
<trkpt lat="37.567486" lon="-1.1840856">
<ele>55</ele>
<time>2014-06-07T09:28:14Z</time>
</trkpt>
<trkpt lat="37.567463" lon="-1.18402">
<ele>55</ele>
<time>2014-06-07T09:28:16Z</time>
</trkpt>
<trkpt lat="37.567444" lon="-1.1839451">
<ele>55</ele>
<time>2014-06-07T09:28:18Z</time>
</trkpt>
<trkpt lat="37.56743" lon="-1.1838697">
<ele>55</ele>
<time>2014-06-07T09:28:20Z</time>
</trkpt>
<trkpt lat="37.567417" lon="-1.1837957">
<ele>55</ele>
<time>2014-06-07T09:28:22Z</time>
</trkpt>
<trkpt lat="37.567398" lon="-1.1837422">
<ele>55</ele>
<time>2014-06-07T09:28:24Z</time>
</trkpt>
<trkpt lat="37.56738" lon="-1.1836742">
<ele>55</ele>
<time>2014-06-07T09:28:26Z</time>
</trkpt>
<trkpt lat="37.567368" lon="-1.1836169">
<ele>55</ele>
<time>2014-06-07T09:28:28Z</time>
</trkpt>
<trkpt lat="37.56736" lon="-1.183568">
<ele>55</ele>
<time>2014-06-07T09:28:30Z</time>
</trkpt>
<trkpt lat="37.567345" lon="-1.1834998">
<ele>55</ele>
<time>2014-06-07T09:28:32Z</time>
</trkpt>
<trkpt lat="37.567326" lon="-1.1834384">
<ele>56</ele>
<time>2014-06-07T09:28:34Z</time>
</trkpt>
<trkpt lat="37.567307" lon="-1.1833663">
<ele>55</ele>
<time>2014-06-07T09:28:36Z</time>
</trkpt>
<trkpt lat="37.56729" lon="-1.1832889">
<ele>55</ele>
<time>2014-06-07T09:28:38Z</time>
</trkpt>
<trkpt lat="37.567272" lon="-1.1832187">
<ele>55</ele>
<time>2014-06-07T09:28:40Z</time>
</trkpt>
<trkpt lat="37.567257" lon="-1.1831576">
<ele>55</ele>
<time>2014-06-07T09:28:42Z</time>
</trkpt>
<trkpt lat="37.56724" lon="-1.1831006">
<ele>55</ele>
<time>2014-06-07T09:28:44Z</time>
</trkpt>
<trkpt lat="37.56723" lon="-1.1830233">
<ele>55</ele>
<time>2014-06-07T09:28:46Z</time>
</trkpt>
<trkpt lat="37.567215" lon="-1.1829548">
<ele>55</ele>
<time>2014-06-07T09:28:48Z</time>
</trkpt>
<trkpt lat="37.5672" lon="-1.1828954">
<ele>55</ele>
<time>2014-06-07T09:28:50Z</time>
</trkpt>
<trkpt lat="37.56718" lon="-1.1828349">
<ele>55</ele>
<time>2014-06-07T09:28:52Z</time>
</trkpt>
<trkpt lat="37.567165" lon="-1.1827596">
<ele>55</ele>
<time>2014-06-07T09:28:54Z</time>
</trkpt>
<trkpt lat="37.56715" lon="-1.1826919">
<ele>55</ele>
<time>2014-06-07T09:28:56Z</time>
</trkpt>
<trkpt lat="37.567142" lon="-1.1826376">
<ele>55</ele>
<time>2014-06-07T09:28:58Z</time>
</trkpt>
<trkpt lat="37.56713" lon="-1.1825761">
<ele>55</ele>
<time>2014-06-07T09:29:00Z</time>
</trkpt>
<trkpt lat="37.567116" lon="-1.1825032">
<ele>55</ele>
<time>2014-06-07T09:29:02Z</time>
</trkpt>
<trkpt lat="37.567104" lon="-1.1824381">
<ele>55</ele>
<time>2014-06-07T09:29:04Z</time>
</trkpt>
<trkpt lat="37.567078" lon="-1.1823697">
<ele>55</ele>
<time>2014-06-07T09:29:06Z</time>
</trkpt>
<trkpt lat="37.56706" lon="-1.1823015">
<ele>55</ele>
<time>2014-06-07T09:29:08Z</time>
</trkpt>
<trkpt lat="37.567047" lon="-1.1822414">
<ele>54</ele>
<time>2014-06-07T09:29:10Z</time>
</trkpt>
<trkpt lat="37.567028" lon="-1.1821688">
<ele>55</ele>
<time>2014-06-07T09:29:12Z</time>
</trkpt>
<trkpt lat="37.56701" lon="-1.182101">
<ele>55</ele>
<time>2014-06-07T09:29:14Z</time>
</trkpt>
<trkpt lat="37.566986" lon="-1.182032">
<ele>55</ele>
<time>2014-06-07T09:29:16Z</time>
</trkpt>
<trkpt lat="37.566963" lon="-1.1819551">
<ele>55</ele>
<time>2014-06-07T09:29:18Z</time>
</trkpt>
<trkpt lat="37.56694" lon="-1.1818858">
<ele>55</ele>
<time>2014-06-07T09:29:20Z</time>
</trkpt>
<trkpt lat="37.566925" lon="-1.1818211">
<ele>55</ele>
<time>2014-06-07T09:29:22Z</time>
</trkpt>
<trkpt lat="37.566902" lon="-1.181752">
<ele>55</ele>
<time>2014-06-07T09:29:24Z</time>
</trkpt>
<trkpt lat="37.5669" lon="-1.181703">
<ele>55</ele>
<time>2014-06-07T09:29:26Z</time>
</trkpt>
<trkpt lat="37.566883" lon="-1.1816391">
<ele>55</ele>
<time>2014-06-07T09:29:28Z</time>
</trkpt>
<trkpt lat="37.56687" lon="-1.1815854">
<ele>55</ele>
<time>2014-06-07T09:29:30Z</time>
</trkpt>
<trkpt lat="37.566856" lon="-1.1815293">
<ele>55</ele>
<time>2014-06-07T09:29:32Z</time>
</trkpt>
<trkpt lat="37.566853" lon="-1.1814615">
<ele>55</ele>
<time>2014-06-07T09:29:34Z</time>
</trkpt>
<trkpt lat="37.566845" lon="-1.1813985">
<ele>55</ele>
<time>2014-06-07T09:29:36Z</time>
</trkpt>
<trkpt lat="37.566845" lon="-1.1813276">
<ele>55</ele>
<time>2014-06-07T09:29:38Z</time>
</trkpt>
<trkpt lat="37.56685" lon="-1.1812563">
<ele>55</ele>
<time>2014-06-07T09:29:40Z</time>
</trkpt>
<trkpt lat="37.566853" lon="-1.1811943">
<ele>55</ele>
<time>2014-06-07T09:29:42Z</time>
</trkpt>
<trkpt lat="37.566853" lon="-1.1811179">
<ele>55</ele>
<time>2014-06-07T09:29:44Z</time>
</trkpt>
<trkpt lat="37.56684" lon="-1.181054">
<ele>55</ele>
<time>2014-06-07T09:29:46Z</time>
</trkpt>
<trkpt lat="37.56683" lon="-1.1809853">
<ele>55</ele>
<time>2014-06-07T09:29:48Z</time>
</trkpt>
<trkpt lat="37.566822" lon="-1.1809218">
<ele>55</ele>
<time>2014-06-07T09:29:50Z</time>
</trkpt>
<trkpt lat="37.56682" lon="-1.1808532">
<ele>55</ele>
<time>2014-06-07T09:29:52Z</time>
</trkpt>
<trkpt lat="37.566814" lon="-1.180787">
<ele>55</ele>
<time>2014-06-07T09:29:54Z</time>
</trkpt>
<trkpt lat="37.56681" lon="-1.1807203">
<ele>55</ele>
<time>2014-06-07T09:29:56Z</time>
</trkpt>
<trkpt lat="37.56681" lon="-1.1806606">
<ele>55</ele>
<time>2014-06-07T09:29:58Z</time>
</trkpt>
<trkpt lat="37.566803" lon="-1.1805933">
<ele>55</ele>
<time>2014-06-07T09:30:00Z</time>
</trkpt>
<trkpt lat="37.566795" lon="-1.1805124">
<ele>55</ele>
<time>2014-06-07T09:30:02Z</time>
</trkpt>
<trkpt lat="37.566788" lon="-1.1804466">
<ele>55</ele>
<time>2014-06-07T09:30:04Z</time>
</trkpt>
<trkpt lat="37.56676" lon="-1.1803817">
<ele>55</ele>
<time>2014-06-07T09:30:06Z</time>
</trkpt>
<trkpt lat="37.566723" lon="-1.1803186">
<ele>55</ele>
<time>2014-06-07T09:30:08Z</time>
</trkpt>
<trkpt lat="37.566685" lon="-1.1802552">
<ele>55</ele>
<time>2014-06-07T09:30:10Z</time>
</trkpt>
<trkpt lat="37.566658" lon="-1.1801953">
<ele>55</ele>
<time>2014-06-07T09:30:12Z</time>
</trkpt>
<trkpt lat="37.56664" lon="-1.1801342">
<ele>55</ele>
<time>2014-06-07T09:30:14Z</time>
</trkpt>
<trkpt lat="37.566647" lon="-1.1800987">
<ele>55</ele>
<time>2014-06-07T09:30:16Z</time>
</trkpt>
<trkpt lat="37.5667" lon="-1.180074">
<ele>55</ele>
<time>2014-06-07T09:30:18Z</time>
</trkpt>
<trkpt lat="37.566742" lon="-1.1800503">
<ele>55</ele>
<time>2014-06-07T09:30:20Z</time>
</trkpt>
<trkpt lat="37.566788" lon="-1.1800286">
<ele>55</ele>
<time>2014-06-07T09:30:22Z</time>
</trkpt>
<trkpt lat="37.566822" lon="-1.1800108">
<ele>55</ele>
<time>2014-06-07T09:30:24Z</time>
</trkpt>
<trkpt lat="37.566868" lon="-1.1799855">
<ele>55</ele>
<time>2014-06-07T09:30:26Z</time>
</trkpt>
<trkpt lat="37.56693" lon="-1.1799601">
<ele>55</ele>
<time>2014-06-07T09:30:28Z</time>
</trkpt>
<trkpt lat="37.56698" lon="-1.1799287">
<ele>56</ele>
<time>2014-06-07T09:30:30Z</time>
</trkpt>
<trkpt lat="37.56704" lon="-1.179903">
<ele>56</ele>
<time>2014-06-07T09:30:32Z</time>
</trkpt>
<trkpt lat="37.567074" lon="-1.1798911">
<ele>56</ele>
<time>2014-06-07T09:30:34Z</time>
</trkpt>
<trkpt lat="37.567116" lon="-1.1799126">
<ele>56</ele>
<time>2014-06-07T09:30:36Z</time>
</trkpt>
<trkpt lat="37.567165" lon="-1.1799569">
<ele>56</ele>
<time>2014-06-07T09:30:38Z</time>
</trkpt>
<trkpt lat="37.5672" lon="-1.1799607">
<ele>56</ele>
<time>2014-06-07T09:30:40Z</time>
</trkpt>
<trkpt lat="37.567238" lon="-1.1799524">
<ele>56</ele>
<time>2014-06-07T09:30:42Z</time>
</trkpt>
<trkpt lat="37.567272" lon="-1.1799011">
<ele>56</ele>
<time>2014-06-07T09:30:44Z</time>
</trkpt>
<trkpt lat="37.567307" lon="-1.1798447">
<ele>56</ele>
<time>2014-06-07T09:30:46Z</time>
</trkpt>
<trkpt lat="37.56735" lon="-1.1797805">
<ele>56</ele>
<time>2014-06-07T09:30:48Z</time>
</trkpt>
<trkpt lat="37.567387" lon="-1.1797198">
<ele>55</ele>
<time>2014-06-07T09:30:50Z</time>
</trkpt>
<trkpt lat="37.567417" lon="-1.1796771">
<ele>55</ele>
<time>2014-06-07T09:30:52Z</time>
</trkpt>
<trkpt lat="37.56745" lon="-1.1796582">
<ele>56</ele>
<time>2014-06-07T09:30:54Z</time>
</trkpt>
<trkpt lat="37.567493" lon="-1.1796432">
<ele>55</ele>
<time>2014-06-07T09:30:56Z</time>
</trkpt>
<trkpt lat="37.56754" lon="-1.1796335">
<ele>55</ele>
<time>2014-06-07T09:30:58Z</time>
</trkpt>
<trkpt lat="37.567577" lon="-1.1796267">
<ele>55</ele>
<time>2014-06-07T09:31:00Z</time>
</trkpt>
<trkpt lat="37.56763" lon="-1.1796322">
<ele>55</ele>
<time>2014-06-07T09:31:02Z</time>
</trkpt>
<trkpt lat="37.567673" lon="-1.1796428">
<ele>55</ele>
<time>2014-06-07T09:31:04Z</time>
</trkpt>
<trkpt lat="37.56773" lon="-1.1796521">
<ele>55</ele>
<time>2014-06-07T09:31:06Z</time>
</trkpt>
<trkpt lat="37.56778" lon="-1.1796631">
<ele>56</ele>
<time>2014-06-07T09:31:08Z</time>
</trkpt>
<trkpt lat="37.56783" lon="-1.1796789">
<ele>56</ele>
<time>2014-06-07T09:31:10Z</time>
</trkpt>
<trkpt lat="37.567886" lon="-1.1796994">
<ele>56</ele>
<time>2014-06-07T09:31:12Z</time>
</trkpt>
<trkpt lat="37.56793" lon="-1.1797115">
<ele>56</ele>
<time>2014-06-07T09:31:14Z</time>
</trkpt>
<trkpt lat="37.567963" lon="-1.1797175">
<ele>56</ele>
<time>2014-06-07T09:31:16Z</time>
</trkpt>
<trkpt lat="37.568016" lon="-1.1797012">
<ele>56</ele>
<time>2014-06-07T09:31:18Z</time>
</trkpt>
<trkpt lat="37.568077" lon="-1.1796948">
<ele>56</ele>
<time>2014-06-07T09:31:20Z</time>
</trkpt>
<trkpt lat="37.568127" lon="-1.1796974">
<ele>56</ele>
<time>2014-06-07T09:31:22Z</time>
</trkpt>
<trkpt lat="37.568184" lon="-1.1797022">
<ele>56</ele>
<time>2014-06-07T09:31:24Z</time>
</trkpt>
<trkpt lat="37.568245" lon="-1.1797113">
<ele>56</ele>
<time>2014-06-07T09:31:26Z</time>
</trkpt>
<trkpt lat="37.568306" lon="-1.1797208">
<ele>56</ele>
<time>2014-06-07T09:31:28Z</time>
</trkpt>
<trkpt lat="37.568336" lon="-1.1797345">
<ele>57</ele>
<time>2014-06-07T09:31:30Z</time>
</trkpt>
<trkpt lat="37.56838" lon="-1.1797572">
<ele>57</ele>
<time>2014-06-07T09:31:32Z</time>
</trkpt>
<trkpt lat="37.56842" lon="-1.1797825">
<ele>57</ele>
<time>2014-06-07T09:31:34Z</time>
</trkpt>
<trkpt lat="37.568466" lon="-1.1798168">
<ele>57</ele>
<time>2014-06-07T09:31:36Z</time>
</trkpt>
<trkpt lat="37.568523" lon="-1.1798539">
<ele>57</ele>
<time>2014-06-07T09:31:38Z</time>
</trkpt>
<trkpt lat="37.568565" lon="-1.1798711">
<ele>57</ele>
<time>2014-06-07T09:31:40Z</time>
</trkpt>
<trkpt lat="37.568615" lon="-1.1798995">
<ele>57</ele>
<time>2014-06-07T09:31:42Z</time>
</trkpt>
<trkpt lat="37.56866" lon="-1.1799263">
<ele>57</ele>
<time>2014-06-07T09:31:44Z</time>
</trkpt>
<trkpt lat="37.5687" lon="-1.1799396">
<ele>58</ele>
<time>2014-06-07T09:31:46Z</time>
</trkpt>
<trkpt lat="37.56875" lon="-1.179963">
<ele>58</ele>
<time>2014-06-07T09:31:48Z</time>
</trkpt>
<trkpt lat="37.56879" lon="-1.1799884">
<ele>58</ele>
<time>2014-06-07T09:31:50Z</time>
</trkpt>
<trkpt lat="37.568844" lon="-1.1800126">
<ele>58</ele>
<time>2014-06-07T09:31:52Z</time>
</trkpt>
<trkpt lat="37.568882" lon="-1.1800267">
<ele>59</ele>
<time>2014-06-07T09:31:54Z</time>
</trkpt>
<trkpt lat="37.56893" lon="-1.1800408">
<ele>59</ele>
<time>2014-06-07T09:31:56Z</time>
</trkpt>
<trkpt lat="37.568985" lon="-1.180055">
<ele>59</ele>
<time>2014-06-07T09:31:58Z</time>
</trkpt>
<trkpt lat="37.569023" lon="-1.1800598">
<ele>59</ele>
<time>2014-06-07T09:32:00Z</time>
</trkpt>
<trkpt lat="37.569077" lon="-1.1800629">
<ele>59</ele>
<time>2014-06-07T09:32:02Z</time>
</trkpt>
<trkpt lat="37.56913" lon="-1.1800714">
<ele>59</ele>
<time>2014-06-07T09:32:04Z</time>
</trkpt>
<trkpt lat="37.569176" lon="-1.180092">
<ele>59</ele>
<time>2014-06-07T09:32:06Z</time>
</trkpt>
<trkpt lat="37.56922" lon="-1.1801109">
<ele>59</ele>
<time>2014-06-07T09:32:08Z</time>
</trkpt>
<trkpt lat="37.56927" lon="-1.1801419">
<ele>59</ele>
<time>2014-06-07T09:32:10Z</time>
</trkpt>
<trkpt lat="37.569324" lon="-1.1801819">
<ele>59</ele>
<time>2014-06-07T09:32:12Z</time>
</trkpt>
<trkpt lat="37.569374" lon="-1.1802231">
<ele>59</ele>
<time>2014-06-07T09:32:14Z</time>
</trkpt>
<trkpt lat="37.569424" lon="-1.1802453">
<ele>59</ele>
<time>2014-06-07T09:32:16Z</time>
</trkpt>
<trkpt lat="37.56947" lon="-1.1802588">
<ele>59</ele>
<time>2014-06-07T09:32:18Z</time>
</trkpt>
<trkpt lat="37.56952" lon="-1.180271">
<ele>60</ele>
<time>2014-06-07T09:32:20Z</time>
</trkpt>
<trkpt lat="37.569557" lon="-1.180293">
<ele>60</ele>
<time>2014-06-07T09:32:22Z</time>
</trkpt>
<trkpt lat="37.569607" lon="-1.1803184">
<ele>60</ele>
<time>2014-06-07T09:32:24Z</time>
</trkpt>
<trkpt lat="37.569653" lon="-1.1803478">
<ele>60</ele>
<time>2014-06-07T09:32:26Z</time>
</trkpt>
<trkpt lat="37.569695" lon="-1.1803757">
<ele>60</ele>
<time>2014-06-07T09:32:28Z</time>
</trkpt>
<trkpt lat="37.569736" lon="-1.1804085">
<ele>60</ele>
<time>2014-06-07T09:32:30Z</time>
</trkpt>
<trkpt lat="37.569782" lon="-1.1804414">
<ele>60</ele>
<time>2014-06-07T09:32:32Z</time>
</trkpt>
<trkpt lat="37.569824" lon="-1.1804723">
<ele>60</ele>
<time>2014-06-07T09:32:34Z</time>
</trkpt>
<trkpt lat="37.569862" lon="-1.1805007">
<ele>60</ele>
<time>2014-06-07T09:32:36Z</time>
</trkpt>
<trkpt lat="37.569897" lon="-1.1805235">
<ele>60</ele>
<time>2014-06-07T09:32:38Z</time>
</trkpt>
<trkpt lat="37.569946" lon="-1.1805532">
<ele>61</ele>
<time>2014-06-07T09:32:40Z</time>
</trkpt>
<trkpt lat="37.57" lon="-1.1805788">
<ele>61</ele>
<time>2014-06-07T09:32:42Z</time>
</trkpt>
<trkpt lat="37.570053" lon="-1.1806023">
<ele>61</ele>
<time>2014-06-07T09:32:44Z</time>
</trkpt>
<trkpt lat="37.570103" lon="-1.1806347">
<ele>61</ele>
<time>2014-06-07T09:32:46Z</time>
</trkpt>
<trkpt lat="37.57015" lon="-1.1806564">
<ele>61</ele>
<time>2014-06-07T09:32:48Z</time>
</trkpt>
<trkpt lat="37.570198" lon="-1.1806313">
<ele>61</ele>
<time>2014-06-07T09:32:50Z</time>
</trkpt>
<trkpt lat="37.57024" lon="-1.1805614">
<ele>61</ele>
<time>2014-06-07T09:32:52Z</time>
</trkpt>
<trkpt lat="37.57025" lon="-1.1804969">
<ele>61</ele>
<time>2014-06-07T09:32:54Z</time>
</trkpt>
<trkpt lat="37.570248" lon="-1.1804284">
<ele>61</ele>
<time>2014-06-07T09:32:56Z</time>
</trkpt>
<trkpt lat="37.570248" lon="-1.1803619">
<ele>61</ele>
<time>2014-06-07T09:32:58Z</time>
</trkpt>
<trkpt lat="37.57024" lon="-1.1802979">
<ele>62</ele>
<time>2014-06-07T09:33:00Z</time>
</trkpt>
<trkpt lat="37.57024" lon="-1.1802334">
<ele>62</ele>
<time>2014-06-07T09:33:02Z</time>
</trkpt>
<trkpt lat="37.570236" lon="-1.1801634">
<ele>62</ele>
<time>2014-06-07T09:33:04Z</time>
</trkpt>
<trkpt lat="37.570232" lon="-1.1801046">
<ele>62</ele>
<time>2014-06-07T09:33:06Z</time>
</trkpt>
<trkpt lat="37.570225" lon="-1.1800315">
<ele>62</ele>
<time>2014-06-07T09:33:08Z</time>
</trkpt>
<trkpt lat="37.570213" lon="-1.1799756">
<ele>62</ele>
<time>2014-06-07T09:33:10Z</time>
</trkpt>
<trkpt lat="37.570198" lon="-1.1799179">
<ele>63</ele>
<time>2014-06-07T09:33:12Z</time>
</trkpt>
<trkpt lat="37.570194" lon="-1.1798617">
<ele>63</ele>
<time>2014-06-07T09:33:14Z</time>
</trkpt>
<trkpt lat="37.570183" lon="-1.1797873">
<ele>63</ele>
<time>2014-06-07T09:33:16Z</time>
</trkpt>
<trkpt lat="37.57018" lon="-1.1797111">
<ele>63</ele>
<time>2014-06-07T09:33:18Z</time>
</trkpt>
<trkpt lat="37.57017" lon="-1.1796249">
<ele>63</ele>
<time>2014-06-07T09:33:20Z</time>
</trkpt>
<trkpt lat="37.57018" lon="-1.1795521">
<ele>63</ele>
<time>2014-06-07T09:33:22Z</time>
</trkpt>
<trkpt lat="37.570183" lon="-1.1794875">
<ele>64</ele>
<time>2014-06-07T09:33:24Z</time>
</trkpt>
<trkpt lat="37.570183" lon="-1.1794314">
<ele>64</ele>
<time>2014-06-07T09:33:26Z</time>
</trkpt>
<trkpt lat="37.570183" lon="-1.1793749">
<ele>64</ele>
<time>2014-06-07T09:33:28Z</time>
</trkpt>
<trkpt lat="37.57017" lon="-1.1793087">
<ele>64</ele>
<time>2014-06-07T09:33:30Z</time>
</trkpt>
<trkpt lat="37.570152" lon="-1.1792482">
<ele>65</ele>
<time>2014-06-07T09:33:32Z</time>
</trkpt>
<trkpt lat="37.57013" lon="-1.1791688">
<ele>65</ele>
<time>2014-06-07T09:33:34Z</time>
</trkpt>
<trkpt lat="37.570114" lon="-1.179085">
<ele>65</ele>
<time>2014-06-07T09:33:36Z</time>
</trkpt>
<trkpt lat="37.570107" lon="-1.1790189">
<ele>65</ele>
<time>2014-06-07T09:33:38Z</time>
</trkpt>
<trkpt lat="37.570095" lon="-1.1789695">
<ele>65</ele>
<time>2014-06-07T09:33:40Z</time>
</trkpt>
<trkpt lat="37.570084" lon="-1.1789266">
<ele>65</ele>
<time>2014-06-07T09:33:42Z</time>
</trkpt>
<trkpt lat="37.57008" lon="-1.1788806">
<ele>66</ele>
<time>2014-06-07T09:33:44Z</time>
</trkpt>
<trkpt lat="37.570087" lon="-1.1788294">
<ele>66</ele>
<time>2014-06-07T09:33:46Z</time>
</trkpt>
<trkpt lat="37.57008" lon="-1.1787665">
<ele>66</ele>
<time>2014-06-07T09:33:48Z</time>
</trkpt>
<trkpt lat="37.57008" lon="-1.178693">
<ele>66</ele>
<time>2014-06-07T09:33:50Z</time>
</trkpt>
<trkpt lat="37.570076" lon="-1.178635">
<ele>66</ele>
<time>2014-06-07T09:33:52Z</time>
</trkpt>
<trkpt lat="37.570065" lon="-1.1785803">
<ele>66</ele>
<time>2014-06-07T09:33:54Z</time>
</trkpt>
<trkpt lat="37.570057" lon="-1.1785148">
<ele>67</ele>
<time>2014-06-07T09:33:56Z</time>
</trkpt>
<trkpt lat="37.570045" lon="-1.1784447">
<ele>67</ele>
<time>2014-06-07T09:33:58Z</time>
</trkpt>
<trkpt lat="37.570038" lon="-1.1783851">
<ele>67</ele>
<time>2014-06-07T09:34:00Z</time>
</trkpt>
<trkpt lat="37.57003" lon="-1.1783154">
<ele>67</ele>
<time>2014-06-07T09:34:02Z</time>
</trkpt>
<trkpt lat="37.570015" lon="-1.1782463">
<ele>67</ele>
<time>2014-06-07T09:34:04Z</time>
</trkpt>
<trkpt lat="37.570015" lon="-1.17818">
<ele>67</ele>
<time>2014-06-07T09:34:06Z</time>
</trkpt>
<trkpt lat="37.570015" lon="-1.1781108">
<ele>67</ele>
<time>2014-06-07T09:34:08Z</time>
</trkpt>
<trkpt lat="37.570007" lon="-1.1780617">
<ele>68</ele>
<time>2014-06-07T09:34:10Z</time>
</trkpt>
<trkpt lat="37.569996" lon="-1.1779978">
<ele>68</ele>
<time>2014-06-07T09:34:12Z</time>
</trkpt>
<trkpt lat="37.56999" lon="-1.1779557">
<ele>68</ele>
<time>2014-06-07T09:34:14Z</time>
</trkpt>
<trkpt lat="37.569977" lon="-1.1778976">
<ele>68</ele>
<time>2014-06-07T09:34:16Z</time>
</trkpt>
<trkpt lat="37.569965" lon="-1.1778342">
<ele>68</ele>
<time>2014-06-07T09:34:18Z</time>
</trkpt>
<trkpt lat="37.569954" lon="-1.177777">
<ele>68</ele>
<time>2014-06-07T09:34:20Z</time>
</trkpt>
<trkpt lat="37.56995" lon="-1.177713">
<ele>69</ele>
<time>2014-06-07T09:34:22Z</time>
</trkpt>
<trkpt lat="37.56995" lon="-1.1776445">
<ele>69</ele>
<time>2014-06-07T09:34:24Z</time>
</trkpt>
<trkpt lat="37.56995" lon="-1.1775751">
<ele>69</ele>
<time>2014-06-07T09:34:26Z</time>
</trkpt>
<trkpt lat="37.569946" lon="-1.1775243">
<ele>69</ele>
<time>2014-06-07T09:34:28Z</time>
</trkpt>
<trkpt lat="37.569942" lon="-1.1774573">
<ele>69</ele>
<time>2014-06-07T09:34:30Z</time>
</trkpt>
<trkpt lat="37.569942" lon="-1.1773942">
<ele>69</ele>
<time>2014-06-07T09:34:32Z</time>
</trkpt>
<trkpt lat="37.569935" lon="-1.1773361">
<ele>69</ele>
<time>2014-06-07T09:34:34Z</time>
</trkpt>
<trkpt lat="37.569923" lon="-1.1772751">
<ele>69</ele>
<time>2014-06-07T09:34:36Z</time>
</trkpt>
<trkpt lat="37.569916" lon="-1.1772177">
<ele>70</ele>
<time>2014-06-07T09:34:38Z</time>
</trkpt>
<trkpt lat="37.5699" lon="-1.1771592">
<ele>70</ele>
<time>2014-06-07T09:34:40Z</time>
</trkpt>
<trkpt lat="37.569893" lon="-1.1770976">
<ele>70</ele>
<time>2014-06-07T09:34:42Z</time>
</trkpt>
<trkpt lat="37.569893" lon="-1.1770339">
<ele>70</ele>
<time>2014-06-07T09:34:44Z</time>
</trkpt>
<trkpt lat="37.569893" lon="-1.1770147">
<ele>70</ele>
<time>2014-06-07T09:34:46Z</time>
</trkpt>
<trkpt lat="37.569893" lon="-1.1769966">
<ele>71</ele>
<time>2014-06-07T09:34:48Z</time>
</trkpt>
<trkpt lat="37.569897" lon="-1.1769649">
<ele>71</ele>
<time>2014-06-07T09:34:50Z</time>
</trkpt>
<trkpt lat="37.569897" lon="-1.1769267">
<ele>71</ele>
<time>2014-06-07T09:34:52Z</time>
</trkpt>
<trkpt lat="37.569897" lon="-1.1769161">
<ele>72</ele>
<time>2014-06-07T09:34:54Z</time>
</trkpt>
<trkpt lat="37.569893" lon="-1.1768974">
<ele>72</ele>
<time>2014-06-07T09:34:56Z</time>
</trkpt>
<trkpt lat="37.56989" lon="-1.1768731">
<ele>72</ele>
<time>2014-06-07T09:34:58Z</time>
</trkpt>
<trkpt lat="37.56989" lon="-1.17685">
<ele>72</ele>
<time>2014-06-07T09:35:00Z</time>
</trkpt>
<trkpt lat="37.56989" lon="-1.1768404">
<ele>73</ele>
<time>2014-06-07T09:35:02Z</time>
</trkpt>
<trkpt lat="37.56989" lon="-1.1768337">
<ele>73</ele>
<time>2014-06-07T09:35:04Z</time>
</trkpt>
<trkpt lat="37.569885" lon="-1.176834">
<ele>73</ele>
<time>2014-06-07T09:35:06Z</time>
</trkpt>
<trkpt lat="37.56988" lon="-1.176828">
<ele>73</ele>
<time>2014-06-07T09:35:08Z</time>
</trkpt>
<trkpt lat="37.56988" lon="-1.1768254">
<ele>73</ele>
<time>2014-06-07T09:35:10Z</time>
</trkpt>
<trkpt lat="37.569874" lon="-1.1768253">
<ele>74</ele>
<time>2014-06-07T09:35:12Z</time>
</trkpt>
<trkpt lat="37.56987" lon="-1.1768254">
<ele>74</ele>
<time>2014-06-07T09:35:14Z</time>
</trkpt>
<trkpt lat="37.569866" lon="-1.1768209">
<ele>74</ele>
<time>2014-06-07T09:35:16Z</time>
</trkpt>
		</trkseg>
	</trk>
</gpx>
